<?xml version="1.0" encoding="UTF-8" standalone="no" ?>
<gpx xmlns="http://www.topografix.com/GPX/1/1" xmlns:xsi="http://www.w3.org/2001/XMLSchema-instance" xsi:schemaLocation="http://www.topografix.com/GPX/1/1 http://www.topografix.com/GPX/1/1/gpx.xsd" version="1.1" creator="VisuGPX - https://www.visugpx.com">
  <metadata>
    <name>cime de baudon</name>
    <desc><![CDATA[Cime de Baudon en boucle depuis gorbio ]]></desc>
  </metadata>
  <trk>
    <name><![CDATA[cime de baudon]]></name>
    <trkseg>
      <trkpt lat="43.78726" lon="7.44275">
        <ele>369.846497</ele>
        <time>2019-04-25T08:05:29Z</time>
      </trkpt>
      <trkpt lat="43.7873" lon="7.44256">
        <ele>373.650452</ele>
        <time>2019-04-25T08:05:48Z</time>
      </trkpt>
      <trkpt lat="43.78735" lon="7.44238">
        <ele>378.264709</ele>
        <time>2019-04-25T08:06:04Z</time>
      </trkpt>
      <trkpt lat="43.78743" lon="7.44217">
        <ele>384.331604</ele>
        <time>2019-04-25T08:06:20Z</time>
      </trkpt>
      <trkpt lat="43.78752" lon="7.44202">
        <ele>388.784973</ele>
        <time>2019-04-25T08:06:44Z</time>
      </trkpt>
      <trkpt lat="43.7876" lon="7.44188">
        <ele>393.485992</ele>
        <time>2019-04-25T08:07:16Z</time>
      </trkpt>
      <trkpt lat="43.78772" lon="7.44179">
        <ele>397.105896</ele>
        <time>2019-04-25T08:07:34Z</time>
      </trkpt>
      <trkpt lat="43.78785" lon="7.4419">
        <ele>395.632965</ele>
        <time>2019-04-25T08:08:02Z</time>
      </trkpt>
      <trkpt lat="43.78799" lon="7.44189">
        <ele>397.182037</ele>
        <time>2019-04-25T08:08:44Z</time>
      </trkpt>
      <trkpt lat="43.78804" lon="7.44167">
        <ele>403.117981</ele>
        <time>2019-04-25T08:09:00Z</time>
      </trkpt>
      <trkpt lat="43.78795" lon="7.44145">
        <ele>408.128052</ele>
        <time>2019-04-25T08:09:15Z</time>
      </trkpt>
      <trkpt lat="43.78784" lon="7.44128">
        <ele>411.979248</ele>
        <time>2019-04-25T08:09:31Z</time>
      </trkpt>
      <trkpt lat="43.78796" lon="7.44114">
        <ele>416.420166</ele>
        <time>2019-04-25T08:09:59Z</time>
      </trkpt>
      <trkpt lat="43.78802" lon="7.44098">
        <ele>421.329651</ele>
        <time>2019-04-25T08:10:31Z</time>
      </trkpt>
      <trkpt lat="43.78813" lon="7.44086">
        <ele>425.100006</ele>
        <time>2019-04-25T08:10:52Z</time>
      </trkpt>
      <trkpt lat="43.78827" lon="7.44088">
        <ele>425.397125</ele>
        <time>2019-04-25T08:11:10Z</time>
      </trkpt>
      <trkpt lat="43.78841" lon="7.44087">
        <ele>425.945038</ele>
        <time>2019-04-25T08:11:53Z</time>
      </trkpt>
      <trkpt lat="43.78848" lon="7.44065">
        <ele>430.75885</ele>
        <time>2019-04-25T08:12:09Z</time>
      </trkpt>
      <trkpt lat="43.78858" lon="7.4404">
        <ele>436.278259</ele>
        <time>2019-04-25T08:12:25Z</time>
      </trkpt>
      <trkpt lat="43.78872" lon="7.44038">
        <ele>436.116852</ele>
        <time>2019-04-25T08:12:48Z</time>
      </trkpt>
      <trkpt lat="43.78888" lon="7.44036">
        <ele>435.571198</ele>
        <time>2019-04-25T08:13:03Z</time>
      </trkpt>
      <trkpt lat="43.789" lon="7.44026">
        <ele>437.29837</ele>
        <time>2019-04-25T08:13:20Z</time>
      </trkpt>
      <trkpt lat="43.7891" lon="7.44013">
        <ele>439.564178</ele>
        <time>2019-04-25T08:13:40Z</time>
      </trkpt>
      <trkpt lat="43.78925" lon="7.4402">
        <ele>437.340179</ele>
        <time>2019-04-25T08:13:56Z</time>
      </trkpt>
      <trkpt lat="43.78938" lon="7.44015">
        <ele>437.835846</ele>
        <time>2019-04-25T08:15:56Z</time>
      </trkpt>
      <trkpt lat="43.78945" lon="7.43999">
        <ele>441.421661</ele>
        <time>2019-04-25T08:16:17Z</time>
      </trkpt>
      <trkpt lat="43.78956" lon="7.43987">
        <ele>444.340485</ele>
        <time>2019-04-25T08:16:35Z</time>
      </trkpt>
      <trkpt lat="43.78965" lon="7.43969">
        <ele>449.19696</ele>
        <time>2019-04-25T08:17:04Z</time>
      </trkpt>
      <trkpt lat="43.78976" lon="7.43955">
        <ele>453.060852</ele>
        <time>2019-04-25T08:17:20Z</time>
      </trkpt>
      <trkpt lat="43.78988" lon="7.43944">
        <ele>456.119415</ele>
        <time>2019-04-25T08:17:35Z</time>
      </trkpt>
      <trkpt lat="43.78997" lon="7.43928">
        <ele>460.511505</ele>
        <time>2019-04-25T08:17:51Z</time>
      </trkpt>
      <trkpt lat="43.79007" lon="7.43914">
        <ele>463.93692</ele>
        <time>2019-04-25T08:18:10Z</time>
      </trkpt>
      <trkpt lat="43.79018" lon="7.43903">
        <ele>466.47467</ele>
        <time>2019-04-25T08:18:29Z</time>
      </trkpt>
      <trkpt lat="43.79029" lon="7.4389">
        <ele>469.580566</ele>
        <time>2019-04-25T08:18:54Z</time>
      </trkpt>
      <trkpt lat="43.79039" lon="7.43876">
        <ele>473.506287</ele>
        <time>2019-04-25T08:19:18Z</time>
      </trkpt>
      <trkpt lat="43.79045" lon="7.43859">
        <ele>478.982269</ele>
        <time>2019-04-25T08:19:40Z</time>
      </trkpt>
      <trkpt lat="43.79053" lon="7.43844">
        <ele>483.510315</ele>
        <time>2019-04-25T08:19:59Z</time>
      </trkpt>
      <trkpt lat="43.79062" lon="7.4383">
        <ele>487.582764</ele>
        <time>2019-04-25T08:20:21Z</time>
      </trkpt>
      <trkpt lat="43.79068" lon="7.43812">
        <ele>492.93338</ele>
        <time>2019-04-25T08:20:41Z</time>
      </trkpt>
      <trkpt lat="43.79077" lon="7.43798">
        <ele>496.872437</ele>
        <time>2019-04-25T08:21:02Z</time>
      </trkpt>
      <trkpt lat="43.79084" lon="7.43781">
        <ele>501.927887</ele>
        <time>2019-04-25T08:21:45Z</time>
      </trkpt>
      <trkpt lat="43.79097" lon="7.43773">
        <ele>502.715118</ele>
        <time>2019-04-25T08:22:06Z</time>
      </trkpt>
      <trkpt lat="43.79103" lon="7.43756">
        <ele>507.773132</ele>
        <time>2019-04-25T08:24:09Z</time>
      </trkpt>
      <trkpt lat="43.79115" lon="7.43745">
        <ele>510.354858</ele>
        <time>2019-04-25T08:24:31Z</time>
      </trkpt>
      <trkpt lat="43.79128" lon="7.43743">
        <ele>509.39386</ele>
        <time>2019-04-25T08:24:48Z</time>
      </trkpt>
      <trkpt lat="43.79142" lon="7.43741">
        <ele>508.167877</ele>
        <time>2019-04-25T08:25:07Z</time>
      </trkpt>
      <trkpt lat="43.79152" lon="7.43729">
        <ele>513.234131</ele>
        <time>2019-04-25T08:25:28Z</time>
      </trkpt>
      <trkpt lat="43.79139" lon="7.43723">
        <ele>517.726074</ele>
        <time>2019-04-25T08:26:07Z</time>
      </trkpt>
      <trkpt lat="43.79125" lon="7.4372">
        <ele>520.641968</ele>
        <time>2019-04-25T08:26:22Z</time>
      </trkpt>
      <trkpt lat="43.79125" lon="7.43699">
        <ele>530.669556</ele>
        <time>2019-04-25T08:26:37Z</time>
      </trkpt>
      <trkpt lat="43.79137" lon="7.43689">
        <ele>534.745117</ele>
        <time>2019-04-25T08:26:55Z</time>
      </trkpt>
      <trkpt lat="43.79146" lon="7.43675">
        <ele>541.322083</ele>
        <time>2019-04-25T08:27:16Z</time>
      </trkpt>
      <trkpt lat="43.7915" lon="7.43657">
        <ele>550.17395</ele>
        <time>2019-04-25T08:27:32Z</time>
      </trkpt>
      <trkpt lat="43.7916" lon="7.43642">
        <ele>557.303284</ele>
        <time>2019-04-25T08:27:49Z</time>
      </trkpt>
      <trkpt lat="43.79167" lon="7.43626">
        <ele>565.122742</ele>
        <time>2019-04-25T08:28:08Z</time>
      </trkpt>
      <trkpt lat="43.79177" lon="7.43612">
        <ele>569.318848</ele>
        <time>2019-04-25T08:28:36Z</time>
      </trkpt>
      <trkpt lat="43.79182" lon="7.43594">
        <ele>577.655823</ele>
        <time>2019-04-25T08:29:32Z</time>
      </trkpt>
      <trkpt lat="43.79194" lon="7.43584">
        <ele>580.547607</ele>
        <time>2019-04-25T08:29:52Z</time>
      </trkpt>
      <trkpt lat="43.79205" lon="7.43568">
        <ele>583.069641</ele>
        <time>2019-04-25T08:30:07Z</time>
      </trkpt>
      <trkpt lat="43.79203" lon="7.43549">
        <ele>589.003235</ele>
        <time>2019-04-25T08:30:33Z</time>
      </trkpt>
      <trkpt lat="43.792" lon="7.43531">
        <ele>594.804382</ele>
        <time>2019-04-25T08:31:00Z</time>
      </trkpt>
      <trkpt lat="43.79198" lon="7.43512">
        <ele>600.43335</ele>
        <time>2019-04-25T08:31:22Z</time>
      </trkpt>
      <trkpt lat="43.792" lon="7.43492">
        <ele>605.220154</ele>
        <time>2019-04-25T08:31:51Z</time>
      </trkpt>
      <trkpt lat="43.79198" lon="7.43471">
        <ele>609.682739</ele>
        <time>2019-04-25T08:32:07Z</time>
      </trkpt>
      <trkpt lat="43.79201" lon="7.43451">
        <ele>613.214172</ele>
        <time>2019-04-25T08:32:22Z</time>
      </trkpt>
      <trkpt lat="43.79202" lon="7.43432">
        <ele>616.956665</ele>
        <time>2019-04-25T08:32:43Z</time>
      </trkpt>
      <trkpt lat="43.79204" lon="7.43413">
        <ele>620.412964</ele>
        <time>2019-04-25T08:33:16Z</time>
      </trkpt>
      <trkpt lat="43.7921" lon="7.43395">
        <ele>622.690369</ele>
        <time>2019-04-25T08:33:47Z</time>
      </trkpt>
      <trkpt lat="43.79223" lon="7.43389">
        <ele>622.602234</ele>
        <time>2019-04-25T08:34:10Z</time>
      </trkpt>
      <trkpt lat="43.79233" lon="7.43377">
        <ele>623.730713</ele>
        <time>2019-04-25T08:34:50Z</time>
      </trkpt>
      <trkpt lat="43.79247" lon="7.43379">
        <ele>622.490356</ele>
        <time>2019-04-25T08:35:10Z</time>
      </trkpt>
      <trkpt lat="43.7926" lon="7.43388">
        <ele>619.179871</ele>
        <time>2019-04-25T08:35:57Z</time>
      </trkpt>
      <trkpt lat="43.7926" lon="7.43369">
        <ele>622.501099</ele>
        <time>2019-04-25T08:39:10Z</time>
      </trkpt>
      <trkpt lat="43.79274" lon="7.43366">
        <ele>621.087646</ele>
        <time>2019-04-25T08:40:22Z</time>
      </trkpt>
      <trkpt lat="43.79285" lon="7.43355">
        <ele>622.0625</ele>
        <time>2019-04-25T08:40:40Z</time>
      </trkpt>
      <trkpt lat="43.79293" lon="7.43339">
        <ele>624.550598</ele>
        <time>2019-04-25T08:40:56Z</time>
      </trkpt>
      <trkpt lat="43.79305" lon="7.43329">
        <ele>625.753174</ele>
        <time>2019-04-25T08:41:17Z</time>
      </trkpt>
      <trkpt lat="43.79314" lon="7.43313">
        <ele>628.196899</ele>
        <time>2019-04-25T08:41:34Z</time>
      </trkpt>
      <trkpt lat="43.79322" lon="7.43297">
        <ele>631.008484</ele>
        <time>2019-04-25T08:41:50Z</time>
      </trkpt>
      <trkpt lat="43.7933" lon="7.43281">
        <ele>634.081238</ele>
        <time>2019-04-25T08:42:12Z</time>
      </trkpt>
      <trkpt lat="43.79342" lon="7.4327">
        <ele>635.930481</ele>
        <time>2019-04-25T08:43:20Z</time>
      </trkpt>
      <trkpt lat="43.79348" lon="7.43251">
        <ele>639.7052</ele>
        <time>2019-04-25T08:43:44Z</time>
      </trkpt>
      <trkpt lat="43.79353" lon="7.43234">
        <ele>643.878052</ele>
        <time>2019-04-25T08:43:59Z</time>
      </trkpt>
      <trkpt lat="43.79348" lon="7.43213">
        <ele>649.551025</ele>
        <time>2019-04-25T08:44:15Z</time>
      </trkpt>
      <trkpt lat="43.79343" lon="7.43194">
        <ele>654.883911</ele>
        <time>2019-04-25T08:44:31Z</time>
      </trkpt>
      <trkpt lat="43.79344" lon="7.43175">
        <ele>659.818909</ele>
        <time>2019-04-25T08:44:56Z</time>
      </trkpt>
      <trkpt lat="43.79355" lon="7.43163">
        <ele>661.861023</ele>
        <time>2019-04-25T08:45:14Z</time>
      </trkpt>
      <trkpt lat="43.79367" lon="7.43153">
        <ele>663.328247</ele>
        <time>2019-04-25T08:45:32Z</time>
      </trkpt>
      <trkpt lat="43.79379" lon="7.43135">
        <ele>666.686768</ele>
        <time>2019-04-25T08:45:47Z</time>
      </trkpt>
      <trkpt lat="43.79389" lon="7.43121">
        <ele>669.036987</ele>
        <time>2019-04-25T08:46:03Z</time>
      </trkpt>
      <trkpt lat="43.79401" lon="7.43111">
        <ele>670.2323</ele>
        <time>2019-04-25T08:46:18Z</time>
      </trkpt>
      <trkpt lat="43.79419" lon="7.43108">
        <ele>669.431763</ele>
        <time>2019-04-25T08:46:34Z</time>
      </trkpt>
      <trkpt lat="43.79434" lon="7.43114">
        <ele>669.550598</ele>
        <time>2019-04-25T08:46:49Z</time>
      </trkpt>
      <trkpt lat="43.79446" lon="7.43105">
        <ele>672.577271</ele>
        <time>2019-04-25T08:47:06Z</time>
      </trkpt>
      <trkpt lat="43.79459" lon="7.43087">
        <ele>676.498413</ele>
        <time>2019-04-25T08:47:22Z</time>
      </trkpt>
      <trkpt lat="43.7947" lon="7.43074">
        <ele>679.353271</ele>
        <time>2019-04-25T08:47:38Z</time>
      </trkpt>
      <trkpt lat="43.79482" lon="7.43058">
        <ele>682.07489</ele>
        <time>2019-04-25T08:47:53Z</time>
      </trkpt>
      <trkpt lat="43.79493" lon="7.43045">
        <ele>683.786316</ele>
        <time>2019-04-25T08:48:09Z</time>
      </trkpt>
      <trkpt lat="43.795" lon="7.43029">
        <ele>685.5578</ele>
        <time>2019-04-25T08:48:25Z</time>
      </trkpt>
      <trkpt lat="43.79506" lon="7.43013">
        <ele>690.110657</ele>
        <time>2019-04-25T08:48:41Z</time>
      </trkpt>
      <trkpt lat="43.79517" lon="7.43">
        <ele>695.365845</ele>
        <time>2019-04-25T08:49:00Z</time>
      </trkpt>
      <trkpt lat="43.79529" lon="7.4299">
        <ele>700.875</ele>
        <time>2019-04-25T08:49:30Z</time>
      </trkpt>
      <trkpt lat="43.79532" lon="7.42971">
        <ele>703.624512</ele>
        <time>2019-04-25T08:50:16Z</time>
      </trkpt>
      <trkpt lat="43.79541" lon="7.42956">
        <ele>707.329468</ele>
        <time>2019-04-25T08:50:38Z</time>
      </trkpt>
      <trkpt lat="43.79545" lon="7.42936">
        <ele>709.526917</ele>
        <time>2019-04-25T08:50:53Z</time>
      </trkpt>
      <trkpt lat="43.79549" lon="7.42918">
        <ele>711.142395</ele>
        <time>2019-04-25T08:51:09Z</time>
      </trkpt>
      <trkpt lat="43.79549" lon="7.42899">
        <ele>713.508057</ele>
        <time>2019-04-25T08:51:25Z</time>
      </trkpt>
      <trkpt lat="43.79552" lon="7.42879">
        <ele>716.144836</ele>
        <time>2019-04-25T08:51:41Z</time>
      </trkpt>
      <trkpt lat="43.79547" lon="7.42861">
        <ele>718.085571</ele>
        <time>2019-04-25T08:51:59Z</time>
      </trkpt>
      <trkpt lat="43.79548" lon="7.42841">
        <ele>720.676392</ele>
        <time>2019-04-25T08:52:18Z</time>
      </trkpt>
      <trkpt lat="43.79544" lon="7.42823">
        <ele>725.565918</ele>
        <time>2019-04-25T08:52:34Z</time>
      </trkpt>
      <trkpt lat="43.79555" lon="7.42808">
        <ele>729.866516</ele>
        <time>2019-04-25T08:52:51Z</time>
      </trkpt>
      <trkpt lat="43.79566" lon="7.42796">
        <ele>732.966675</ele>
        <time>2019-04-25T08:53:10Z</time>
      </trkpt>
      <trkpt lat="43.79573" lon="7.4278">
        <ele>737.184631</ele>
        <time>2019-04-25T08:53:29Z</time>
      </trkpt>
      <trkpt lat="43.79579" lon="7.42763">
        <ele>741.787537</ele>
        <time>2019-04-25T08:53:51Z</time>
      </trkpt>
      <trkpt lat="43.79592" lon="7.42754">
        <ele>745.57312</ele>
        <time>2019-04-25T08:54:11Z</time>
      </trkpt>
      <trkpt lat="43.79609" lon="7.42744">
        <ele>752.08905</ele>
        <time>2019-04-25T08:54:26Z</time>
      </trkpt>
      <trkpt lat="43.79621" lon="7.42728">
        <ele>758.533203</ele>
        <time>2019-04-25T08:54:41Z</time>
      </trkpt>
      <trkpt lat="43.79634" lon="7.4272">
        <ele>761.85083</ele>
        <time>2019-04-25T08:55:00Z</time>
      </trkpt>
      <trkpt lat="43.79652" lon="7.42725">
        <ele>762.463379</ele>
        <time>2019-04-25T08:55:15Z</time>
      </trkpt>
      <trkpt lat="43.7967" lon="7.42726">
        <ele>764.509888</ele>
        <time>2019-04-25T08:55:31Z</time>
      </trkpt>
      <trkpt lat="43.79688" lon="7.42719">
        <ele>769.867432</ele>
        <time>2019-04-25T08:55:46Z</time>
      </trkpt>
      <trkpt lat="43.79693" lon="7.42701">
        <ele>772.100952</ele>
        <time>2019-04-25T08:56:24Z</time>
      </trkpt>
      <trkpt lat="43.79708" lon="7.42684">
        <ele>775.595947</ele>
        <time>2019-04-25T08:56:39Z</time>
      </trkpt>
      <trkpt lat="43.79719" lon="7.42672">
        <ele>777.501465</ele>
        <time>2019-04-25T08:56:55Z</time>
      </trkpt>
      <trkpt lat="43.79732" lon="7.42655">
        <ele>780.258606</ele>
        <time>2019-04-25T08:57:11Z</time>
      </trkpt>
      <trkpt lat="43.79745" lon="7.42638">
        <ele>782.140869</ele>
        <time>2019-04-25T08:57:27Z</time>
      </trkpt>
      <trkpt lat="43.79757" lon="7.42627">
        <ele>784.361816</ele>
        <time>2019-04-25T08:57:43Z</time>
      </trkpt>
      <trkpt lat="43.79764" lon="7.4261">
        <ele>786.137268</ele>
        <time>2019-04-25T08:58:03Z</time>
      </trkpt>
      <trkpt lat="43.79772" lon="7.42593">
        <ele>787.612793</ele>
        <time>2019-04-25T08:58:23Z</time>
      </trkpt>
      <trkpt lat="43.79786" lon="7.42586">
        <ele>790.335266</ele>
        <time>2019-04-25T08:58:58Z</time>
      </trkpt>
      <trkpt lat="43.79798" lon="7.42579">
        <ele>793.268677</ele>
        <time>2019-04-25T08:59:17Z</time>
      </trkpt>
      <trkpt lat="43.79808" lon="7.42565">
        <ele>796.319336</ele>
        <time>2019-04-25T08:59:34Z</time>
      </trkpt>
      <trkpt lat="43.79817" lon="7.42548">
        <ele>798.612244</ele>
        <time>2019-04-25T08:59:49Z</time>
      </trkpt>
      <trkpt lat="43.79829" lon="7.42534">
        <ele>800.284424</ele>
        <time>2019-04-25T09:00:05Z</time>
      </trkpt>
      <trkpt lat="43.79842" lon="7.42526">
        <ele>802.988647</ele>
        <time>2019-04-25T09:00:21Z</time>
      </trkpt>
      <trkpt lat="43.7986" lon="7.42523">
        <ele>807.54834</ele>
        <time>2019-04-25T09:00:37Z</time>
      </trkpt>
      <trkpt lat="43.79873" lon="7.42516">
        <ele>810.649719</ele>
        <time>2019-04-25T09:00:56Z</time>
      </trkpt>
      <trkpt lat="43.79884" lon="7.42526">
        <ele>813.793823</ele>
        <time>2019-04-25T09:01:20Z</time>
      </trkpt>
      <trkpt lat="43.79897" lon="7.42516">
        <ele>816.78064</ele>
        <time>2019-04-25T09:01:38Z</time>
      </trkpt>
      <trkpt lat="43.79911" lon="7.42518">
        <ele>820.424255</ele>
        <time>2019-04-25T09:01:55Z</time>
      </trkpt>
      <trkpt lat="43.79907" lon="7.42501">
        <ele>818.60437</ele>
        <time>2019-04-25T09:02:15Z</time>
      </trkpt>
      <trkpt lat="43.79901" lon="7.42484">
        <ele>821.721497</ele>
        <time>2019-04-25T09:02:32Z</time>
      </trkpt>
      <trkpt lat="43.79891" lon="7.42467">
        <ele>823.790527</ele>
        <time>2019-04-25T09:02:48Z</time>
      </trkpt>
      <trkpt lat="43.79891" lon="7.42448">
        <ele>829.329102</ele>
        <time>2019-04-25T09:03:41Z</time>
      </trkpt>
      <trkpt lat="43.79905" lon="7.42451">
        <ele>832.028137</ele>
        <time>2019-04-25T09:04:07Z</time>
      </trkpt>
      <trkpt lat="43.79919" lon="7.42453">
        <ele>835.177307</ele>
        <time>2019-04-25T09:04:26Z</time>
      </trkpt>
      <trkpt lat="43.79933" lon="7.42457">
        <ele>838.110718</ele>
        <time>2019-04-25T09:04:50Z</time>
      </trkpt>
      <trkpt lat="43.79947" lon="7.42456">
        <ele>842.383484</ele>
        <time>2019-04-25T09:05:18Z</time>
      </trkpt>
      <trkpt lat="43.7996" lon="7.42462">
        <ele>844.334961</ele>
        <time>2019-04-25T09:05:36Z</time>
      </trkpt>
      <trkpt lat="43.79974" lon="7.42466">
        <ele>847.351562</ele>
        <time>2019-04-25T09:05:55Z</time>
      </trkpt>
      <trkpt lat="43.79988" lon="7.42467">
        <ele>851.209412</ele>
        <time>2019-04-25T09:06:12Z</time>
      </trkpt>
      <trkpt lat="43.80001" lon="7.42474">
        <ele>853.080139</ele>
        <time>2019-04-25T09:06:28Z</time>
      </trkpt>
      <trkpt lat="43.80014" lon="7.42469">
        <ele>857.794189</ele>
        <time>2019-04-25T09:06:44Z</time>
      </trkpt>
      <trkpt lat="43.8003" lon="7.42471">
        <ele>861.303955</ele>
        <time>2019-04-25T09:07:00Z</time>
      </trkpt>
      <trkpt lat="43.80044" lon="7.42476">
        <ele>863.761047</ele>
        <time>2019-04-25T09:07:23Z</time>
      </trkpt>
      <trkpt lat="43.80063" lon="7.42477">
        <ele>868.737488</ele>
        <time>2019-04-25T09:07:39Z</time>
      </trkpt>
      <trkpt lat="43.80079" lon="7.42475">
        <ele>873.182312</ele>
        <time>2019-04-25T09:08:22Z</time>
      </trkpt>
      <trkpt lat="43.80092" lon="7.42468">
        <ele>877.040222</ele>
        <time>2019-04-25T09:09:20Z</time>
      </trkpt>
      <trkpt lat="43.8011" lon="7.42471">
        <ele>880.510986</ele>
        <time>2019-04-25T09:09:35Z</time>
      </trkpt>
      <trkpt lat="43.80124" lon="7.42469">
        <ele>883.563477</ele>
        <time>2019-04-25T09:09:51Z</time>
      </trkpt>
      <trkpt lat="43.80136" lon="7.42461">
        <ele>886.559937</ele>
        <time>2019-04-25T09:10:10Z</time>
      </trkpt>
      <trkpt lat="43.8015" lon="7.4246">
        <ele>889.300049</ele>
        <time>2019-04-25T09:10:28Z</time>
      </trkpt>
      <trkpt lat="43.80165" lon="7.42463">
        <ele>892.277405</ele>
        <time>2019-04-25T09:10:43Z</time>
      </trkpt>
      <trkpt lat="43.8018" lon="7.42458">
        <ele>894.447449</ele>
        <time>2019-04-25T09:10:59Z</time>
      </trkpt>
      <trkpt lat="43.80192" lon="7.42448">
        <ele>895.708008</ele>
        <time>2019-04-25T09:11:19Z</time>
      </trkpt>
      <trkpt lat="43.80204" lon="7.42438">
        <ele>896.782104</ele>
        <time>2019-04-25T09:11:35Z</time>
      </trkpt>
      <trkpt lat="43.80214" lon="7.42424">
        <ele>897.04895</ele>
        <time>2019-04-25T09:11:59Z</time>
      </trkpt>
      <trkpt lat="43.80225" lon="7.42411">
        <ele>898.374023</ele>
        <time>2019-04-25T09:12:18Z</time>
      </trkpt>
      <trkpt lat="43.80236" lon="7.424">
        <ele>900.884705</ele>
        <time>2019-04-25T09:12:43Z</time>
      </trkpt>
      <trkpt lat="43.80247" lon="7.42389">
        <ele>903.150146</ele>
        <time>2019-04-25T09:12:58Z</time>
      </trkpt>
      <trkpt lat="43.80261" lon="7.42384">
        <ele>906.429993</ele>
        <time>2019-04-25T09:13:29Z</time>
      </trkpt>
      <trkpt lat="43.80274" lon="7.42374">
        <ele>910.328613</ele>
        <time>2019-04-25T09:13:47Z</time>
      </trkpt>
      <trkpt lat="43.80287" lon="7.4237">
        <ele>913.601562</ele>
        <time>2019-04-25T09:14:07Z</time>
      </trkpt>
      <trkpt lat="43.803" lon="7.42361">
        <ele>917.033875</ele>
        <time>2019-04-25T09:14:23Z</time>
      </trkpt>
      <trkpt lat="43.80311" lon="7.42349">
        <ele>920.001038</ele>
        <time>2019-04-25T09:14:45Z</time>
      </trkpt>
      <trkpt lat="43.80305" lon="7.42332">
        <ele>920.013428</ele>
        <time>2019-04-25T09:15:58Z</time>
      </trkpt>
      <trkpt lat="43.80315" lon="7.4232">
        <ele>922.702576</ele>
        <time>2019-04-25T09:16:16Z</time>
      </trkpt>
      <trkpt lat="43.80328" lon="7.4233">
        <ele>924.131836</ele>
        <time>2019-04-25T09:17:17Z</time>
      </trkpt>
      <trkpt lat="43.8034" lon="7.4234">
        <ele>925.386414</ele>
        <time>2019-04-25T09:17:40Z</time>
      </trkpt>
      <trkpt lat="43.80351" lon="7.42352">
        <ele>926.413086</ele>
        <time>2019-04-25T09:17:57Z</time>
      </trkpt>
      <trkpt lat="43.80364" lon="7.42358">
        <ele>928.261353</ele>
        <time>2019-04-25T09:18:18Z</time>
      </trkpt>
      <trkpt lat="43.80377" lon="7.42367">
        <ele>930.334717</ele>
        <time>2019-04-25T09:18:34Z</time>
      </trkpt>
      <trkpt lat="43.80391" lon="7.42365">
        <ele>932.349731</ele>
        <time>2019-04-25T09:18:54Z</time>
      </trkpt>
      <trkpt lat="43.80404" lon="7.42363">
        <ele>934.188354</ele>
        <time>2019-04-25T09:19:12Z</time>
      </trkpt>
      <trkpt lat="43.80418" lon="7.42364">
        <ele>936.123291</ele>
        <time>2019-04-25T09:19:28Z</time>
      </trkpt>
      <trkpt lat="43.80432" lon="7.42367">
        <ele>937.172424</ele>
        <time>2019-04-25T09:19:54Z</time>
      </trkpt>
      <trkpt lat="43.80442" lon="7.42382">
        <ele>939.90918</ele>
        <time>2019-04-25T09:20:18Z</time>
      </trkpt>
      <trkpt lat="43.80453" lon="7.42399">
        <ele>943.465698</ele>
        <time>2019-04-25T09:20:34Z</time>
      </trkpt>
      <trkpt lat="43.80469" lon="7.42408">
        <ele>946.468018</ele>
        <time>2019-04-25T09:20:49Z</time>
      </trkpt>
      <trkpt lat="43.80481" lon="7.42419">
        <ele>949.479675</ele>
        <time>2019-04-25T09:21:04Z</time>
      </trkpt>
      <trkpt lat="43.80494" lon="7.42428">
        <ele>952.044006</ele>
        <time>2019-04-25T09:21:20Z</time>
      </trkpt>
      <trkpt lat="43.80508" lon="7.42432">
        <ele>953.859497</ele>
        <time>2019-04-25T09:21:59Z</time>
      </trkpt>
      <trkpt lat="43.80519" lon="7.42444">
        <ele>956.988892</ele>
        <time>2019-04-25T09:22:14Z</time>
      </trkpt>
      <trkpt lat="43.80526" lon="7.42465">
        <ele>961.07666</ele>
        <time>2019-04-25T09:22:29Z</time>
      </trkpt>
      <trkpt lat="43.80544" lon="7.4248">
        <ele>965.768372</ele>
        <time>2019-04-25T09:22:44Z</time>
      </trkpt>
      <trkpt lat="43.8056" lon="7.42492">
        <ele>970.150513</ele>
        <time>2019-04-25T09:22:59Z</time>
      </trkpt>
      <trkpt lat="43.80578" lon="7.42496">
        <ele>973.363159</ele>
        <time>2019-04-25T09:23:15Z</time>
      </trkpt>
      <trkpt lat="43.80593" lon="7.42488">
        <ele>975.346802</ele>
        <time>2019-04-25T09:23:30Z</time>
      </trkpt>
      <trkpt lat="43.80608" lon="7.42482">
        <ele>978.268494</ele>
        <time>2019-04-25T09:23:46Z</time>
      </trkpt>
      <trkpt lat="43.80619" lon="7.42472">
        <ele>979.229492</ele>
        <time>2019-04-25T09:24:42Z</time>
      </trkpt>
      <trkpt lat="43.80637" lon="7.42483">
        <ele>986.749695</ele>
        <time>2019-04-25T09:24:57Z</time>
      </trkpt>
      <trkpt lat="43.80647" lon="7.4247">
        <ele>986.683594</ele>
        <time>2019-04-25T09:25:27Z</time>
      </trkpt>
      <trkpt lat="43.80663" lon="7.42469">
        <ele>990.875122</ele>
        <time>2019-04-25T09:25:43Z</time>
      </trkpt>
      <trkpt lat="43.80673" lon="7.42455">
        <ele>991.123962</ele>
        <time>2019-04-25T09:26:03Z</time>
      </trkpt>
      <trkpt lat="43.80679" lon="7.42435">
        <ele>988.814514</ele>
        <time>2019-04-25T09:26:18Z</time>
      </trkpt>
      <trkpt lat="43.80695" lon="7.42416">
        <ele>990.055298</ele>
        <time>2019-04-25T09:26:34Z</time>
      </trkpt>
      <trkpt lat="43.80711" lon="7.42393">
        <ele>989.497314</ele>
        <time>2019-04-25T09:26:49Z</time>
      </trkpt>
      <trkpt lat="43.80726" lon="7.42378">
        <ele>991.741638</ele>
        <time>2019-04-25T09:27:05Z</time>
      </trkpt>
      <trkpt lat="43.80739" lon="7.42366">
        <ele>994.122131</ele>
        <time>2019-04-25T09:27:21Z</time>
      </trkpt>
      <trkpt lat="43.80728" lon="7.42377">
        <ele>992.112793</ele>
        <time>2019-04-25T09:28:17Z</time>
      </trkpt>
      <trkpt lat="43.80714" lon="7.42386">
        <ele>989.00946</ele>
        <time>2019-04-25T09:28:33Z</time>
      </trkpt>
      <trkpt lat="43.80702" lon="7.42397">
        <ele>987.35022</ele>
        <time>2019-04-25T09:28:49Z</time>
      </trkpt>
      <trkpt lat="43.80686" lon="7.42419">
        <ele>987.552917</ele>
        <time>2019-04-25T09:29:05Z</time>
      </trkpt>
      <trkpt lat="43.80678" lon="7.42437">
        <ele>988.812561</ele>
        <time>2019-04-25T09:29:20Z</time>
      </trkpt>
      <trkpt lat="43.80666" lon="7.4246">
        <ele>989.616394</ele>
        <time>2019-04-25T09:29:36Z</time>
      </trkpt>
      <trkpt lat="43.80647" lon="7.42464">
        <ele>985.408691</ele>
        <time>2019-04-25T09:29:51Z</time>
      </trkpt>
      <trkpt lat="43.80631" lon="7.42472">
        <ele>982.651001</ele>
        <time>2019-04-25T09:30:07Z</time>
      </trkpt>
      <trkpt lat="43.80611" lon="7.42471">
        <ele>976.779053</ele>
        <time>2019-04-25T09:30:23Z</time>
      </trkpt>
      <trkpt lat="43.80599" lon="7.4248">
        <ele>975.292297</ele>
        <time>2019-04-25T09:30:38Z</time>
      </trkpt>
      <trkpt lat="43.80596" lon="7.42501">
        <ele>978.61792</ele>
        <time>2019-04-25T09:31:20Z</time>
      </trkpt>
      <trkpt lat="43.80618" lon="7.42506">
        <ele>985.136597</ele>
        <time>2019-04-25T09:31:35Z</time>
      </trkpt>
      <trkpt lat="43.80634" lon="7.42507">
        <ele>990.205627</ele>
        <time>2019-04-25T09:31:50Z</time>
      </trkpt>
      <trkpt lat="43.80648" lon="7.42513">
        <ele>994.885437</ele>
        <time>2019-04-25T09:32:07Z</time>
      </trkpt>
      <trkpt lat="43.8066" lon="7.42521">
        <ele>999.799561</ele>
        <time>2019-04-25T09:32:26Z</time>
      </trkpt>
      <trkpt lat="43.80671" lon="7.42532">
        <ele>1005.832764</ele>
        <time>2019-04-25T09:32:43Z</time>
      </trkpt>
      <trkpt lat="43.8068" lon="7.42547">
        <ele>1012.37915</ele>
        <time>2019-04-25T09:33:01Z</time>
      </trkpt>
      <trkpt lat="43.8068" lon="7.42566">
        <ele>1015.819336</ele>
        <time>2019-04-25T09:33:20Z</time>
      </trkpt>
      <trkpt lat="43.80691" lon="7.42578">
        <ele>1024.206543</ele>
        <time>2019-04-25T09:33:52Z</time>
      </trkpt>
      <trkpt lat="43.807" lon="7.42593">
        <ele>1030.805298</ele>
        <time>2019-04-25T09:34:16Z</time>
      </trkpt>
      <trkpt lat="43.80711" lon="7.42605">
        <ele>1037.944092</ele>
        <time>2019-04-25T09:34:43Z</time>
      </trkpt>
      <trkpt lat="43.8071" lon="7.42625">
        <ele>1039.095581</ele>
        <time>2019-04-25T09:35:00Z</time>
      </trkpt>
      <trkpt lat="43.80713" lon="7.42645">
        <ele>1042.350586</ele>
        <time>2019-04-25T09:35:16Z</time>
      </trkpt>
      <trkpt lat="43.80722" lon="7.4266">
        <ele>1049.542847</ele>
        <time>2019-04-25T09:35:38Z</time>
      </trkpt>
      <trkpt lat="43.80732" lon="7.42673">
        <ele>1057.309326</ele>
        <time>2019-04-25T09:36:00Z</time>
      </trkpt>
      <trkpt lat="43.80739" lon="7.42689">
        <ele>1062.519775</ele>
        <time>2019-04-25T09:36:24Z</time>
      </trkpt>
      <trkpt lat="43.80743" lon="7.42707">
        <ele>1065.913818</ele>
        <time>2019-04-25T09:36:50Z</time>
      </trkpt>
      <trkpt lat="43.80746" lon="7.42726">
        <ele>1067.823242</ele>
        <time>2019-04-25T09:37:14Z</time>
      </trkpt>
      <trkpt lat="43.80751" lon="7.42744">
        <ele>1071.743652</ele>
        <time>2019-04-25T09:37:38Z</time>
      </trkpt>
      <trkpt lat="43.80761" lon="7.42758">
        <ele>1083.576172</ele>
        <time>2019-04-25T09:37:57Z</time>
      </trkpt>
      <trkpt lat="43.80765" lon="7.42777">
        <ele>1087.982422</ele>
        <time>2019-04-25T09:38:26Z</time>
      </trkpt>
      <trkpt lat="43.8077" lon="7.42795">
        <ele>1093.508179</ele>
        <time>2019-04-25T09:38:53Z</time>
      </trkpt>
      <trkpt lat="43.80777" lon="7.4281">
        <ele>1102.572998</ele>
        <time>2019-04-25T09:39:16Z</time>
      </trkpt>
      <trkpt lat="43.80774" lon="7.42829">
        <ele>1098.522339</ele>
        <time>2019-04-25T09:39:40Z</time>
      </trkpt>
      <trkpt lat="43.80786" lon="7.42839">
        <ele>1112.633789</ele>
        <time>2019-04-25T09:40:16Z</time>
      </trkpt>
      <trkpt lat="43.80781" lon="7.4286">
        <ele>1104.629639</ele>
        <time>2019-04-25T09:41:14Z</time>
      </trkpt>
      <trkpt lat="43.80785" lon="7.42878">
        <ele>1108.105957</ele>
        <time>2019-04-25T09:41:31Z</time>
      </trkpt>
      <trkpt lat="43.80786" lon="7.42897">
        <ele>1108.083008</ele>
        <time>2019-04-25T09:42:01Z</time>
      </trkpt>
      <trkpt lat="43.808" lon="7.42902">
        <ele>1122.814941</ele>
        <time>2019-04-25T09:42:43Z</time>
      </trkpt>
      <trkpt lat="43.80812" lon="7.42894">
        <ele>1137.57666</ele>
        <time>2019-04-25T09:43:28Z</time>
      </trkpt>
      <trkpt lat="43.80827" lon="7.42894">
        <ele>1154.567993</ele>
        <time>2019-04-25T09:44:06Z</time>
      </trkpt>
      <trkpt lat="43.80827" lon="7.42875">
        <ele>1157.214722</ele>
        <time>2019-04-25T09:44:43Z</time>
      </trkpt>
      <trkpt lat="43.80836" lon="7.4286">
        <ele>1169.032959</ele>
        <time>2019-04-25T09:45:20Z</time>
      </trkpt>
      <trkpt lat="43.80845" lon="7.42846">
        <ele>1179.262695</ele>
        <time>2019-04-25T09:46:42Z</time>
      </trkpt>
      <trkpt lat="43.80842" lon="7.42827">
        <ele>1178.592896</ele>
        <time>2019-04-25T09:47:18Z</time>
      </trkpt>
      <trkpt lat="43.80845" lon="7.42809">
        <ele>1181.112183</ele>
        <time>2019-04-25T09:47:54Z</time>
      </trkpt>
      <trkpt lat="43.80848" lon="7.42791">
        <ele>1184.425293</ele>
        <time>2019-04-25T09:48:35Z</time>
      </trkpt>
      <trkpt lat="43.80856" lon="7.42773">
        <ele>1191.009277</ele>
        <time>2019-04-25T09:49:16Z</time>
      </trkpt>
      <trkpt lat="43.80848" lon="7.42757">
        <ele>1184.192017</ele>
        <time>2019-04-25T09:49:54Z</time>
      </trkpt>
      <trkpt lat="43.80861" lon="7.42752">
        <ele>1195.258789</ele>
        <time>2019-04-25T09:51:00Z</time>
      </trkpt>
      <trkpt lat="43.80873" lon="7.42742">
        <ele>1203.87793</ele>
        <time>2019-04-25T09:51:40Z</time>
      </trkpt>
      <trkpt lat="43.80877" lon="7.42723">
        <ele>1201.809326</ele>
        <time>2019-04-25T09:52:16Z</time>
      </trkpt>
      <trkpt lat="43.80879" lon="7.42704">
        <ele>1198.218506</ele>
        <time>2019-04-25T09:52:33Z</time>
      </trkpt>
      <trkpt lat="43.8088" lon="7.42685">
        <ele>1193.237305</ele>
        <time>2019-04-25T09:52:49Z</time>
      </trkpt>
      <trkpt lat="43.80878" lon="7.42666">
        <ele>1186.395264</ele>
        <time>2019-04-25T09:53:25Z</time>
      </trkpt>
      <trkpt lat="43.8088" lon="7.42647">
        <ele>1181.159424</ele>
        <time>2019-04-25T09:53:49Z</time>
      </trkpt>
      <trkpt lat="43.80894" lon="7.42644">
        <ele>1189.651367</ele>
        <time>2019-04-25T09:54:04Z</time>
      </trkpt>
      <trkpt lat="43.80909" lon="7.42644">
        <ele>1199.743408</ele>
        <time>2019-04-25T09:54:28Z</time>
      </trkpt>
      <trkpt lat="43.80922" lon="7.42641">
        <ele>1203.355225</ele>
        <time>2019-04-25T09:54:51Z</time>
      </trkpt>
      <trkpt lat="43.80934" lon="7.4263">
        <ele>1198.495483</ele>
        <time>2019-04-25T09:55:20Z</time>
      </trkpt>
      <trkpt lat="43.8094" lon="7.42613">
        <ele>1192.014648</ele>
        <time>2019-04-25T09:55:47Z</time>
      </trkpt>
      <trkpt lat="43.8095" lon="7.42599">
        <ele>1187.138184</ele>
        <time>2019-04-25T09:56:09Z</time>
      </trkpt>
      <trkpt lat="43.80954" lon="7.42581">
        <ele>1181.525635</ele>
        <time>2019-04-25T09:56:33Z</time>
      </trkpt>
      <trkpt lat="43.80963" lon="7.42566">
        <ele>1178.57666</ele>
        <time>2019-04-25T09:57:39Z</time>
      </trkpt>
      <trkpt lat="43.80976" lon="7.42566">
        <ele>1179.253174</ele>
        <time>2019-04-25T09:58:11Z</time>
      </trkpt>
      <trkpt lat="43.80982" lon="7.42584">
        <ele>1182.233521</ele>
        <time>2019-04-25T10:01:44Z</time>
      </trkpt>
      <trkpt lat="43.80986" lon="7.42603">
        <ele>1186.90332</ele>
        <time>2019-04-25T10:02:02Z</time>
      </trkpt>
      <trkpt lat="43.80992" lon="7.4262">
        <ele>1190.889893</ele>
        <time>2019-04-25T10:02:17Z</time>
      </trkpt>
      <trkpt lat="43.80994" lon="7.42638">
        <ele>1195.150024</ele>
        <time>2019-04-25T10:02:46Z</time>
      </trkpt>
      <trkpt lat="43.80994" lon="7.42657">
        <ele>1199.700562</ele>
        <time>2019-04-25T10:03:24Z</time>
      </trkpt>
      <trkpt lat="43.80994" lon="7.42679">
        <ele>1205.184448</ele>
        <time>2019-04-25T10:03:40Z</time>
      </trkpt>
      <trkpt lat="43.80999" lon="7.42697">
        <ele>1208.998901</ele>
        <time>2019-04-25T10:03:57Z</time>
      </trkpt>
      <trkpt lat="43.81003" lon="7.42716">
        <ele>1211.584106</ele>
        <time>2019-04-25T10:04:30Z</time>
      </trkpt>
      <trkpt lat="43.80996" lon="7.42733">
        <ele>1218.618774</ele>
        <time>2019-04-25T10:04:56Z</time>
      </trkpt>
      <trkpt lat="43.80992" lon="7.42751">
        <ele>1224.2677</ele>
        <time>2019-04-25T10:05:25Z</time>
      </trkpt>
      <trkpt lat="43.80987" lon="7.4277">
        <ele>1227.809937</ele>
        <time>2019-04-25T10:06:01Z</time>
      </trkpt>
      <trkpt lat="43.80985" lon="7.42789">
        <ele>1230.815063</ele>
        <time>2019-04-25T10:07:26Z</time>
      </trkpt>
      <trkpt lat="43.8098" lon="7.42806">
        <ele>1234.226318</ele>
        <time>2019-04-25T10:07:44Z</time>
      </trkpt>
      <trkpt lat="43.80975" lon="7.42825">
        <ele>1237.496338</ele>
        <time>2019-04-25T10:08:41Z</time>
      </trkpt>
      <trkpt lat="43.80968" lon="7.42843">
        <ele>1239.460938</ele>
        <time>2019-04-25T10:08:59Z</time>
      </trkpt>
      <trkpt lat="43.80963" lon="7.4286">
        <ele>1239.762939</ele>
        <time>2019-04-25T10:09:14Z</time>
      </trkpt>
      <trkpt lat="43.80955" lon="7.42877">
        <ele>1240.535034</ele>
        <time>2019-04-25T10:09:32Z</time>
      </trkpt>
      <trkpt lat="43.80953" lon="7.42896">
        <ele>1240.181885</ele>
        <time>2019-04-25T10:10:00Z</time>
      </trkpt>
      <trkpt lat="43.8094" lon="7.429">
        <ele>1242.440674</ele>
        <time>2019-04-25T10:10:20Z</time>
      </trkpt>
      <trkpt lat="43.80926" lon="7.42901">
        <ele>1244.842773</ele>
        <time>2019-04-25T10:14:18Z</time>
      </trkpt>
      <trkpt lat="43.80911" lon="7.42896">
        <ele>1241.401733</ele>
        <time>2019-04-25T10:21:51Z</time>
      </trkpt>
      <trkpt lat="43.80925" lon="7.42895">
        <ele>1245.258179</ele>
        <time>2019-04-25T10:30:21Z</time>
      </trkpt>
      <trkpt lat="43.8094" lon="7.42894">
        <ele>1242.708862</ele>
        <time>2019-04-25T10:47:22Z</time>
      </trkpt>
      <trkpt lat="43.80951" lon="7.42904">
        <ele>1240.241333</ele>
        <time>2019-04-25T10:47:42Z</time>
      </trkpt>
      <trkpt lat="43.80955" lon="7.42926">
        <ele>1237.976929</ele>
        <time>2019-04-25T10:48:22Z</time>
      </trkpt>
      <trkpt lat="43.80947" lon="7.42941">
        <ele>1237.481445</ele>
        <time>2019-04-25T10:49:19Z</time>
      </trkpt>
      <trkpt lat="43.8095" lon="7.42961">
        <ele>1234.513916</ele>
        <time>2019-04-25T10:49:34Z</time>
      </trkpt>
      <trkpt lat="43.80945" lon="7.42979">
        <ele>1233.397095</ele>
        <time>2019-04-25T10:49:52Z</time>
      </trkpt>
      <trkpt lat="43.8094" lon="7.42998">
        <ele>1232.249268</ele>
        <time>2019-04-25T10:50:08Z</time>
      </trkpt>
      <trkpt lat="43.80938" lon="7.43018">
        <ele>1229.522705</ele>
        <time>2019-04-25T10:50:35Z</time>
      </trkpt>
      <trkpt lat="43.80941" lon="7.43037">
        <ele>1225.756104</ele>
        <time>2019-04-25T10:50:58Z</time>
      </trkpt>
      <trkpt lat="43.80941" lon="7.43056">
        <ele>1222.314941</ele>
        <time>2019-04-25T10:51:18Z</time>
      </trkpt>
      <trkpt lat="43.80943" lon="7.43076">
        <ele>1218.554443</ele>
        <time>2019-04-25T10:51:55Z</time>
      </trkpt>
      <trkpt lat="43.80942" lon="7.43095">
        <ele>1214.508179</ele>
        <time>2019-04-25T10:52:25Z</time>
      </trkpt>
      <trkpt lat="43.80945" lon="7.43114">
        <ele>1207.830078</ele>
        <time>2019-04-25T10:52:53Z</time>
      </trkpt>
      <trkpt lat="43.80943" lon="7.43133">
        <ele>1203.884521</ele>
        <time>2019-04-25T10:53:40Z</time>
      </trkpt>
      <trkpt lat="43.80945" lon="7.43152">
        <ele>1197.62793</ele>
        <time>2019-04-25T10:54:06Z</time>
      </trkpt>
      <trkpt lat="43.80953" lon="7.43167">
        <ele>1189.600708</ele>
        <time>2019-04-25T10:54:38Z</time>
      </trkpt>
      <trkpt lat="43.80952" lon="7.43186">
        <ele>1183.789062</ele>
        <time>2019-04-25T10:55:02Z</time>
      </trkpt>
      <trkpt lat="43.80955" lon="7.43205">
        <ele>1176.862183</ele>
        <time>2019-04-25T10:55:27Z</time>
      </trkpt>
      <trkpt lat="43.80956" lon="7.43224">
        <ele>1170.336914</ele>
        <time>2019-04-25T10:56:12Z</time>
      </trkpt>
      <trkpt lat="43.80956" lon="7.43244">
        <ele>1164.209473</ele>
        <time>2019-04-25T10:56:27Z</time>
      </trkpt>
      <trkpt lat="43.80957" lon="7.43264">
        <ele>1158.225952</ele>
        <time>2019-04-25T10:57:02Z</time>
      </trkpt>
      <trkpt lat="43.80953" lon="7.43283">
        <ele>1155.095459</ele>
        <time>2019-04-25T10:58:22Z</time>
      </trkpt>
      <trkpt lat="43.8095" lon="7.43304">
        <ele>1151.179443</ele>
        <time>2019-04-25T10:58:37Z</time>
      </trkpt>
      <trkpt lat="43.80947" lon="7.43326">
        <ele>1146.318115</ele>
        <time>2019-04-25T10:58:53Z</time>
      </trkpt>
      <trkpt lat="43.80947" lon="7.43347">
        <ele>1141.891235</ele>
        <time>2019-04-25T10:59:09Z</time>
      </trkpt>
      <trkpt lat="43.80946" lon="7.43366">
        <ele>1139.100342</ele>
        <time>2019-04-25T10:59:26Z</time>
      </trkpt>
      <trkpt lat="43.80941" lon="7.43388">
        <ele>1137.328613</ele>
        <time>2019-04-25T10:59:41Z</time>
      </trkpt>
      <trkpt lat="43.80935" lon="7.43413">
        <ele>1135.687012</ele>
        <time>2019-04-25T10:59:57Z</time>
      </trkpt>
      <trkpt lat="43.80935" lon="7.43432">
        <ele>1131.589722</ele>
        <time>2019-04-25T11:00:13Z</time>
      </trkpt>
      <trkpt lat="43.80938" lon="7.43451">
        <ele>1126.313477</ele>
        <time>2019-04-25T11:00:32Z</time>
      </trkpt>
      <trkpt lat="43.80936" lon="7.43477">
        <ele>1122.075806</ele>
        <time>2019-04-25T11:00:48Z</time>
      </trkpt>
      <trkpt lat="43.80933" lon="7.43496">
        <ele>1119.289307</ele>
        <time>2019-04-25T11:01:03Z</time>
      </trkpt>
      <trkpt lat="43.80929" lon="7.43514">
        <ele>1117.992065</ele>
        <time>2019-04-25T11:01:19Z</time>
      </trkpt>
      <trkpt lat="43.80922" lon="7.43531">
        <ele>1117.989136</ele>
        <time>2019-04-25T11:01:42Z</time>
      </trkpt>
      <trkpt lat="43.80917" lon="7.43554">
        <ele>1116.668457</ele>
        <time>2019-04-25T11:01:57Z</time>
      </trkpt>
      <trkpt lat="43.80909" lon="7.43572">
        <ele>1114.079956</ele>
        <time>2019-04-25T11:02:12Z</time>
      </trkpt>
      <trkpt lat="43.809" lon="7.43556">
        <ele>1117.835815</ele>
        <time>2019-04-25T11:06:19Z</time>
      </trkpt>
      <trkpt lat="43.80898" lon="7.43576">
        <ele>1114.791626</ele>
        <time>2019-04-25T11:06:41Z</time>
      </trkpt>
      <trkpt lat="43.80888" lon="7.43593">
        <ele>1113.185913</ele>
        <time>2019-04-25T11:06:56Z</time>
      </trkpt>
      <trkpt lat="43.80885" lon="7.4362">
        <ele>1109.452881</ele>
        <time>2019-04-25T11:07:12Z</time>
      </trkpt>
      <trkpt lat="43.80886" lon="7.43648">
        <ele>1104.667358</ele>
        <time>2019-04-25T11:07:28Z</time>
      </trkpt>
      <trkpt lat="43.80882" lon="7.43667">
        <ele>1102.566406</ele>
        <time>2019-04-25T11:07:43Z</time>
      </trkpt>
      <trkpt lat="43.80875" lon="7.43683">
        <ele>1101.042236</ele>
        <time>2019-04-25T11:08:03Z</time>
      </trkpt>
      <trkpt lat="43.80872" lon="7.43702">
        <ele>1098.180298</ele>
        <time>2019-04-25T11:08:24Z</time>
      </trkpt>
      <trkpt lat="43.80869" lon="7.43721">
        <ele>1095.619263</ele>
        <time>2019-04-25T11:08:39Z</time>
      </trkpt>
      <trkpt lat="43.80863" lon="7.43739">
        <ele>1094.859619</ele>
        <time>2019-04-25T11:09:09Z</time>
      </trkpt>
      <trkpt lat="43.8086" lon="7.43758">
        <ele>1092.353394</ele>
        <time>2019-04-25T11:09:44Z</time>
      </trkpt>
      <trkpt lat="43.80853" lon="7.43776">
        <ele>1090.62793</ele>
        <time>2019-04-25T11:10:10Z</time>
      </trkpt>
      <trkpt lat="43.80847" lon="7.43799">
        <ele>1087.941162</ele>
        <time>2019-04-25T11:10:26Z</time>
      </trkpt>
      <trkpt lat="43.80841" lon="7.43817">
        <ele>1087.21875</ele>
        <time>2019-04-25T11:10:42Z</time>
      </trkpt>
      <trkpt lat="43.80836" lon="7.43837">
        <ele>1085.383057</ele>
        <time>2019-04-25T11:10:57Z</time>
      </trkpt>
      <trkpt lat="43.80837" lon="7.43857">
        <ele>1076.467529</ele>
        <time>2019-04-25T11:11:13Z</time>
      </trkpt>
      <trkpt lat="43.80835" lon="7.43875">
        <ele>1070.182007</ele>
        <time>2019-04-25T11:11:38Z</time>
      </trkpt>
      <trkpt lat="43.80843" lon="7.43892">
        <ele>1057.238525</ele>
        <time>2019-04-25T11:12:02Z</time>
      </trkpt>
      <trkpt lat="43.80843" lon="7.43911">
        <ele>1049.617188</ele>
        <time>2019-04-25T11:12:23Z</time>
      </trkpt>
      <trkpt lat="43.80834" lon="7.43927">
        <ele>1050.578613</ele>
        <time>2019-04-25T11:12:39Z</time>
      </trkpt>
      <trkpt lat="43.80825" lon="7.43948">
        <ele>1047.396973</ele>
        <time>2019-04-25T11:12:54Z</time>
      </trkpt>
      <trkpt lat="43.80814" lon="7.43959">
        <ele>1047.090576</ele>
        <time>2019-04-25T11:13:39Z</time>
      </trkpt>
      <trkpt lat="43.808" lon="7.43966">
        <ele>1049.264771</ele>
        <time>2019-04-25T11:13:54Z</time>
      </trkpt>
      <trkpt lat="43.80791" lon="7.4398">
        <ele>1049.118652</ele>
        <time>2019-04-25T11:14:21Z</time>
      </trkpt>
      <trkpt lat="43.80797" lon="7.43997">
        <ele>1044.581909</ele>
        <time>2019-04-25T11:17:20Z</time>
      </trkpt>
      <trkpt lat="43.80792" lon="7.44014">
        <ele>1043.920166</ele>
        <time>2019-04-25T11:18:30Z</time>
      </trkpt>
      <trkpt lat="43.80797" lon="7.44033">
        <ele>1039.297119</ele>
        <time>2019-04-25T11:18:52Z</time>
      </trkpt>
      <trkpt lat="43.8079" lon="7.44052">
        <ele>1039.075195</ele>
        <time>2019-04-25T11:19:07Z</time>
      </trkpt>
      <trkpt lat="43.80791" lon="7.44072">
        <ele>1035.91394</ele>
        <time>2019-04-25T11:19:23Z</time>
      </trkpt>
      <trkpt lat="43.80787" lon="7.4409">
        <ele>1034.947266</ele>
        <time>2019-04-25T11:19:41Z</time>
      </trkpt>
      <trkpt lat="43.8079" lon="7.44109">
        <ele>1030.240356</ele>
        <time>2019-04-25T11:20:16Z</time>
      </trkpt>
      <trkpt lat="43.80791" lon="7.44129">
        <ele>1025.984131</ele>
        <time>2019-04-25T11:20:34Z</time>
      </trkpt>
      <trkpt lat="43.80788" lon="7.44148">
        <ele>1024.447144</ele>
        <time>2019-04-25T11:20:49Z</time>
      </trkpt>
      <trkpt lat="43.80782" lon="7.44166">
        <ele>1024.073242</ele>
        <time>2019-04-25T11:21:08Z</time>
      </trkpt>
      <trkpt lat="43.80786" lon="7.44184">
        <ele>1016.072815</ele>
        <time>2019-04-25T11:21:42Z</time>
      </trkpt>
      <trkpt lat="43.80783" lon="7.44202">
        <ele>1011.773193</ele>
        <time>2019-04-25T11:22:05Z</time>
      </trkpt>
      <trkpt lat="43.8078" lon="7.44222">
        <ele>1006.372986</ele>
        <time>2019-04-25T11:22:40Z</time>
      </trkpt>
      <trkpt lat="43.8078" lon="7.44242">
        <ele>999.879639</ele>
        <time>2019-04-25T11:23:13Z</time>
      </trkpt>
      <trkpt lat="43.80782" lon="7.44261">
        <ele>990.133423</ele>
        <time>2019-04-25T11:25:10Z</time>
      </trkpt>
      <trkpt lat="43.80795" lon="7.44266">
        <ele>980.038452</ele>
        <time>2019-04-25T11:25:42Z</time>
      </trkpt>
      <trkpt lat="43.80804" lon="7.44281">
        <ele>967.85791</ele>
        <time>2019-04-25T11:27:16Z</time>
      </trkpt>
      <trkpt lat="43.80811" lon="7.44297">
        <ele>956.560425</ele>
        <time>2019-04-25T11:28:22Z</time>
      </trkpt>
      <trkpt lat="43.80823" lon="7.44279">
        <ele>958.175354</ele>
        <time>2019-04-25T11:28:37Z</time>
      </trkpt>
      <trkpt lat="43.80829" lon="7.44262">
        <ele>962.409485</ele>
        <time>2019-04-25T11:29:25Z</time>
      </trkpt>
      <trkpt lat="43.80834" lon="7.44282">
        <ele>951.426575</ele>
        <time>2019-04-25T11:30:23Z</time>
      </trkpt>
      <trkpt lat="43.80837" lon="7.44309">
        <ele>938.895935</ele>
        <time>2019-04-25T11:30:38Z</time>
      </trkpt>
      <trkpt lat="43.80839" lon="7.44329">
        <ele>929.77417</ele>
        <time>2019-04-25T11:30:54Z</time>
      </trkpt>
      <trkpt lat="43.80833" lon="7.44346">
        <ele>926.965576</ele>
        <time>2019-04-25T11:32:15Z</time>
      </trkpt>
      <trkpt lat="43.80828" lon="7.44364">
        <ele>924.100037</ele>
        <time>2019-04-25T11:32:40Z</time>
      </trkpt>
      <trkpt lat="43.80819" lon="7.44381">
        <ele>921.072144</ele>
        <time>2019-04-25T11:32:56Z</time>
      </trkpt>
      <trkpt lat="43.8081" lon="7.44396">
        <ele>917.705566</ele>
        <time>2019-04-25T11:33:17Z</time>
      </trkpt>
      <trkpt lat="43.80799" lon="7.44409">
        <ele>913.810303</ele>
        <time>2019-04-25T11:33:34Z</time>
      </trkpt>
      <trkpt lat="43.80789" lon="7.4442">
        <ele>910.11853</ele>
        <time>2019-04-25T11:33:50Z</time>
      </trkpt>
      <trkpt lat="43.80773" lon="7.44433">
        <ele>906.993896</ele>
        <time>2019-04-25T11:34:06Z</time>
      </trkpt>
      <trkpt lat="43.80763" lon="7.44447">
        <ele>902.785889</ele>
        <time>2019-04-25T11:34:26Z</time>
      </trkpt>
      <trkpt lat="43.80749" lon="7.4446">
        <ele>898.921692</ele>
        <time>2019-04-25T11:34:41Z</time>
      </trkpt>
      <trkpt lat="43.80734" lon="7.4447">
        <ele>901.535767</ele>
        <time>2019-04-25T11:34:57Z</time>
      </trkpt>
      <trkpt lat="43.80717" lon="7.4448">
        <ele>902.712402</ele>
        <time>2019-04-25T11:35:13Z</time>
      </trkpt>
      <trkpt lat="43.80706" lon="7.44491">
        <ele>899.028076</ele>
        <time>2019-04-25T11:35:28Z</time>
      </trkpt>
      <trkpt lat="43.80696" lon="7.44506">
        <ele>892.427917</ele>
        <time>2019-04-25T11:35:44Z</time>
      </trkpt>
      <trkpt lat="43.80686" lon="7.44519">
        <ele>888.220398</ele>
        <time>2019-04-25T11:36:03Z</time>
      </trkpt>
      <trkpt lat="43.80676" lon="7.44533">
        <ele>883.220581</ele>
        <time>2019-04-25T11:36:37Z</time>
      </trkpt>
      <trkpt lat="43.80664" lon="7.44542">
        <ele>882.013428</ele>
        <time>2019-04-25T11:36:59Z</time>
      </trkpt>
      <trkpt lat="43.80648" lon="7.4455">
        <ele>888.741882</ele>
        <time>2019-04-25T11:37:15Z</time>
      </trkpt>
      <trkpt lat="43.8064" lon="7.44567">
        <ele>882.994324</ele>
        <time>2019-04-25T11:37:35Z</time>
      </trkpt>
      <trkpt lat="43.80627" lon="7.44579">
        <ele>881.169189</ele>
        <time>2019-04-25T11:37:50Z</time>
      </trkpt>
      <trkpt lat="43.80613" lon="7.44608">
        <ele>869.244507</ele>
        <time>2019-04-25T11:38:06Z</time>
      </trkpt>
      <trkpt lat="43.806" lon="7.44628">
        <ele>860.899536</ele>
        <time>2019-04-25T11:38:21Z</time>
      </trkpt>
      <trkpt lat="43.80587" lon="7.44647">
        <ele>851.899048</ele>
        <time>2019-04-25T11:38:37Z</time>
      </trkpt>
      <trkpt lat="43.8058" lon="7.4467">
        <ele>839.45752</ele>
        <time>2019-04-25T11:38:52Z</time>
      </trkpt>
      <trkpt lat="43.80573" lon="7.44689">
        <ele>835.590942</ele>
        <time>2019-04-25T11:39:08Z</time>
      </trkpt>
      <trkpt lat="43.80563" lon="7.44702">
        <ele>833.831055</ele>
        <time>2019-04-25T11:39:27Z</time>
      </trkpt>
      <trkpt lat="43.80553" lon="7.44716">
        <ele>831.224609</ele>
        <time>2019-04-25T11:39:48Z</time>
      </trkpt>
      <trkpt lat="43.80539" lon="7.44728">
        <ele>830.014893</ele>
        <time>2019-04-25T11:40:03Z</time>
      </trkpt>
      <trkpt lat="43.80527" lon="7.44739">
        <ele>827.297363</ele>
        <time>2019-04-25T11:40:18Z</time>
      </trkpt>
      <trkpt lat="43.80518" lon="7.44756">
        <ele>820.647095</ele>
        <time>2019-04-25T11:40:38Z</time>
      </trkpt>
      <trkpt lat="43.80495" lon="7.4476">
        <ele>824.051025</ele>
        <time>2019-04-25T11:40:54Z</time>
      </trkpt>
      <trkpt lat="43.80483" lon="7.44769">
        <ele>823.341919</ele>
        <time>2019-04-25T11:41:15Z</time>
      </trkpt>
      <trkpt lat="43.80465" lon="7.44784">
        <ele>820.802002</ele>
        <time>2019-04-25T11:41:31Z</time>
      </trkpt>
      <trkpt lat="43.80456" lon="7.44799">
        <ele>815.061279</ele>
        <time>2019-04-25T11:41:54Z</time>
      </trkpt>
      <trkpt lat="43.80442" lon="7.44806">
        <ele>814.767944</ele>
        <time>2019-04-25T11:42:09Z</time>
      </trkpt>
      <trkpt lat="43.80432" lon="7.44819">
        <ele>808.786255</ele>
        <time>2019-04-25T11:42:26Z</time>
      </trkpt>
      <trkpt lat="43.80419" lon="7.44829">
        <ele>805.672974</ele>
        <time>2019-04-25T11:42:42Z</time>
      </trkpt>
      <trkpt lat="43.8041" lon="7.44844">
        <ele>805.471741</ele>
        <time>2019-04-25T11:42:57Z</time>
      </trkpt>
      <trkpt lat="43.804" lon="7.44858">
        <ele>808.638855</ele>
        <time>2019-04-25T11:43:14Z</time>
      </trkpt>
      <trkpt lat="43.80384" lon="7.44874">
        <ele>814.96698</ele>
        <time>2019-04-25T11:43:30Z</time>
      </trkpt>
      <trkpt lat="43.80373" lon="7.44887">
        <ele>817.289917</ele>
        <time>2019-04-25T11:43:47Z</time>
      </trkpt>
      <trkpt lat="43.80361" lon="7.44913">
        <ele>815.042664</ele>
        <time>2019-04-25T11:44:03Z</time>
      </trkpt>
      <trkpt lat="43.80353" lon="7.44934">
        <ele>813.680298</ele>
        <time>2019-04-25T11:44:18Z</time>
      </trkpt>
      <trkpt lat="43.8035" lon="7.44961">
        <ele>807.700745</ele>
        <time>2019-04-25T11:44:34Z</time>
      </trkpt>
      <trkpt lat="43.80353" lon="7.44985">
        <ele>800.167847</ele>
        <time>2019-04-25T11:44:49Z</time>
      </trkpt>
      <trkpt lat="43.8036" lon="7.45011">
        <ele>791.487854</ele>
        <time>2019-04-25T11:45:05Z</time>
      </trkpt>
      <trkpt lat="43.80364" lon="7.45038">
        <ele>785.291016</ele>
        <time>2019-04-25T11:45:21Z</time>
      </trkpt>
      <trkpt lat="43.80368" lon="7.45064">
        <ele>779.597717</ele>
        <time>2019-04-25T11:45:37Z</time>
      </trkpt>
      <trkpt lat="43.80382" lon="7.45087">
        <ele>770.846924</ele>
        <time>2019-04-25T11:45:53Z</time>
      </trkpt>
      <trkpt lat="43.80391" lon="7.45105">
        <ele>763.751526</ele>
        <time>2019-04-25T11:46:09Z</time>
      </trkpt>
      <trkpt lat="43.80399" lon="7.45121">
        <ele>757.911804</ele>
        <time>2019-04-25T11:48:48Z</time>
      </trkpt>
      <trkpt lat="43.8039" lon="7.45137">
        <ele>757.276855</ele>
        <time>2019-04-25T11:51:41Z</time>
      </trkpt>
      <trkpt lat="43.80396" lon="7.45154">
        <ele>752.077271</ele>
        <time>2019-04-25T11:51:57Z</time>
      </trkpt>
      <trkpt lat="43.80382" lon="7.45169">
        <ele>752.282349</ele>
        <time>2019-04-25T11:52:13Z</time>
      </trkpt>
      <trkpt lat="43.80387" lon="7.45187">
        <ele>746.257141</ele>
        <time>2019-04-25T11:52:28Z</time>
      </trkpt>
      <trkpt lat="43.80395" lon="7.45203">
        <ele>740.590881</ele>
        <time>2019-04-25T11:52:48Z</time>
      </trkpt>
      <trkpt lat="43.80398" lon="7.45223">
        <ele>735.383118</ele>
        <time>2019-04-25T11:53:10Z</time>
      </trkpt>
      <trkpt lat="43.80403" lon="7.45244">
        <ele>729.66687</ele>
        <time>2019-04-25T11:53:25Z</time>
      </trkpt>
      <trkpt lat="43.80404" lon="7.45265">
        <ele>724.604187</ele>
        <time>2019-04-25T11:53:40Z</time>
      </trkpt>
      <trkpt lat="43.80398" lon="7.45283">
        <ele>721.073303</ele>
        <time>2019-04-25T11:53:57Z</time>
      </trkpt>
      <trkpt lat="43.80395" lon="7.45311">
        <ele>714.763184</ele>
        <time>2019-04-25T11:54:13Z</time>
      </trkpt>
      <trkpt lat="43.80386" lon="7.45336">
        <ele>709.486816</ele>
        <time>2019-04-25T11:54:29Z</time>
      </trkpt>
      <trkpt lat="43.80368" lon="7.45345">
        <ele>707.907349</ele>
        <time>2019-04-25T11:54:44Z</time>
      </trkpt>
      <trkpt lat="43.80354" lon="7.45361">
        <ele>703.977173</ele>
        <time>2019-04-25T11:55:00Z</time>
      </trkpt>
      <trkpt lat="43.80335" lon="7.45366">
        <ele>703.824097</ele>
        <time>2019-04-25T11:55:16Z</time>
      </trkpt>
      <trkpt lat="43.80322" lon="7.45371">
        <ele>703.542358</ele>
        <time>2019-04-25T11:55:32Z</time>
      </trkpt>
      <trkpt lat="43.80316" lon="7.45388">
        <ele>698.795288</ele>
        <time>2019-04-25T11:55:49Z</time>
      </trkpt>
      <trkpt lat="43.80318" lon="7.45407">
        <ele>692.706116</ele>
        <time>2019-04-25T11:56:42Z</time>
      </trkpt>
      <trkpt lat="43.80313" lon="7.45427">
        <ele>686.515442</ele>
        <time>2019-04-25T11:56:57Z</time>
      </trkpt>
      <trkpt lat="43.80304" lon="7.45445">
        <ele>681.195435</ele>
        <time>2019-04-25T11:57:13Z</time>
      </trkpt>
      <trkpt lat="43.80288" lon="7.4545">
        <ele>681.809937</ele>
        <time>2019-04-25T11:57:29Z</time>
      </trkpt>
      <trkpt lat="43.80273" lon="7.45452">
        <ele>682.952515</ele>
        <time>2019-04-25T11:57:48Z</time>
      </trkpt>
      <trkpt lat="43.8026" lon="7.45453">
        <ele>684.715942</ele>
        <time>2019-04-25T11:58:47Z</time>
      </trkpt>
      <trkpt lat="43.80251" lon="7.45469">
        <ele>681.064575</ele>
        <time>2019-04-25T11:59:02Z</time>
      </trkpt>
      <trkpt lat="43.80254" lon="7.45488">
        <ele>675.03186</ele>
        <time>2019-04-25T11:59:31Z</time>
      </trkpt>
      <trkpt lat="43.80252" lon="7.45506">
        <ele>669.28186</ele>
        <time>2019-04-25T12:00:10Z</time>
      </trkpt>
      <trkpt lat="43.80239" lon="7.45515">
        <ele>669.454285</ele>
        <time>2019-04-25T12:00:28Z</time>
      </trkpt>
      <trkpt lat="43.80226" lon="7.45521">
        <ele>670.628235</ele>
        <time>2019-04-25T12:00:43Z</time>
      </trkpt>
      <trkpt lat="43.80219" lon="7.45538">
        <ele>666.541809</ele>
        <time>2019-04-25T12:01:13Z</time>
      </trkpt>
      <trkpt lat="43.80215" lon="7.45566">
        <ele>658.582153</ele>
        <time>2019-04-25T12:01:28Z</time>
      </trkpt>
      <trkpt lat="43.80211" lon="7.45584">
        <ele>653.414673</ele>
        <time>2019-04-25T12:01:43Z</time>
      </trkpt>
      <trkpt lat="43.80209" lon="7.4561">
        <ele>646.038391</ele>
        <time>2019-04-25T12:01:59Z</time>
      </trkpt>
      <trkpt lat="43.80208" lon="7.45636">
        <ele>638.024719</ele>
        <time>2019-04-25T12:02:14Z</time>
      </trkpt>
      <trkpt lat="43.80212" lon="7.45657">
        <ele>630.621521</ele>
        <time>2019-04-25T12:02:29Z</time>
      </trkpt>
      <trkpt lat="43.80209" lon="7.45678">
        <ele>626.268921</ele>
        <time>2019-04-25T12:02:45Z</time>
      </trkpt>
      <trkpt lat="43.8021" lon="7.45701">
        <ele>621.850952</ele>
        <time>2019-04-25T12:03:01Z</time>
      </trkpt>
      <trkpt lat="43.80205" lon="7.45719">
        <ele>619.771301</ele>
        <time>2019-04-25T12:03:17Z</time>
      </trkpt>
      <trkpt lat="43.80209" lon="7.45738">
        <ele>615.660339</ele>
        <time>2019-04-25T12:03:44Z</time>
      </trkpt>
      <trkpt lat="43.80195" lon="7.45736">
        <ele>618.92981</ele>
        <time>2019-04-25T12:05:28Z</time>
      </trkpt>
      <trkpt lat="43.80183" lon="7.45728">
        <ele>623.403198</ele>
        <time>2019-04-25T12:05:46Z</time>
      </trkpt>
      <trkpt lat="43.80172" lon="7.45716">
        <ele>628.54303</ele>
        <time>2019-04-25T12:06:05Z</time>
      </trkpt>
      <trkpt lat="43.80166" lon="7.45697">
        <ele>634.144226</ele>
        <time>2019-04-25T12:06:23Z</time>
      </trkpt>
      <trkpt lat="43.80154" lon="7.45686">
        <ele>636.52948</ele>
        <time>2019-04-25T12:06:46Z</time>
      </trkpt>
      <trkpt lat="43.80141" lon="7.4568">
        <ele>638.065125</ele>
        <time>2019-04-25T12:07:06Z</time>
      </trkpt>
      <trkpt lat="43.80132" lon="7.45666">
        <ele>641.943115</ele>
        <time>2019-04-25T12:07:27Z</time>
      </trkpt>
      <trkpt lat="43.80119" lon="7.45657">
        <ele>645.787415</ele>
        <time>2019-04-25T12:07:50Z</time>
      </trkpt>
      <trkpt lat="43.80108" lon="7.45646">
        <ele>650.157776</ele>
        <time>2019-04-25T12:08:18Z</time>
      </trkpt>
      <trkpt lat="43.80101" lon="7.4563">
        <ele>656.520691</ele>
        <time>2019-04-25T12:08:46Z</time>
      </trkpt>
      <trkpt lat="43.80085" lon="7.45615">
        <ele>663.476868</ele>
        <time>2019-04-25T12:09:02Z</time>
      </trkpt>
      <trkpt lat="43.80077" lon="7.45599">
        <ele>669.437561</ele>
        <time>2019-04-25T12:09:17Z</time>
      </trkpt>
      <trkpt lat="43.80066" lon="7.45586">
        <ele>674.449036</ele>
        <time>2019-04-25T12:09:33Z</time>
      </trkpt>
      <trkpt lat="43.80052" lon="7.4559">
        <ele>672.21167</ele>
        <time>2019-04-25T12:09:49Z</time>
      </trkpt>
      <trkpt lat="43.80037" lon="7.45592">
        <ele>670.67395</ele>
        <time>2019-04-25T12:10:04Z</time>
      </trkpt>
      <trkpt lat="43.80022" lon="7.45591">
        <ele>670.592041</ele>
        <time>2019-04-25T12:10:23Z</time>
      </trkpt>
      <trkpt lat="43.80007" lon="7.45586">
        <ele>672.589478</ele>
        <time>2019-04-25T12:10:39Z</time>
      </trkpt>
      <trkpt lat="43.79995" lon="7.45577">
        <ele>675.576355</ele>
        <time>2019-04-25T12:10:55Z</time>
      </trkpt>
      <trkpt lat="43.79982" lon="7.45567">
        <ele>677.089966</ele>
        <time>2019-04-25T12:12:05Z</time>
      </trkpt>
      <trkpt lat="43.79964" lon="7.45557">
        <ele>677.836304</ele>
        <time>2019-04-25T12:12:21Z</time>
      </trkpt>
      <trkpt lat="43.79951" lon="7.45544">
        <ele>680.59021</ele>
        <time>2019-04-25T12:12:37Z</time>
      </trkpt>
      <trkpt lat="43.79939" lon="7.4553">
        <ele>683.739746</ele>
        <time>2019-04-25T12:12:52Z</time>
      </trkpt>
      <trkpt lat="43.79927" lon="7.45521">
        <ele>685.385315</ele>
        <time>2019-04-25T12:13:07Z</time>
      </trkpt>
      <trkpt lat="43.79911" lon="7.45511">
        <ele>686.34259</ele>
        <time>2019-04-25T12:13:23Z</time>
      </trkpt>
      <trkpt lat="43.79894" lon="7.45499">
        <ele>686.589417</ele>
        <time>2019-04-25T12:13:39Z</time>
      </trkpt>
      <trkpt lat="43.79883" lon="7.45488">
        <ele>687.603455</ele>
        <time>2019-04-25T12:13:54Z</time>
      </trkpt>
      <trkpt lat="43.7987" lon="7.45482">
        <ele>686.175232</ele>
        <time>2019-04-25T12:14:12Z</time>
      </trkpt>
      <trkpt lat="43.79858" lon="7.4547">
        <ele>686.681152</ele>
        <time>2019-04-25T12:14:44Z</time>
      </trkpt>
      <trkpt lat="43.79845" lon="7.45455">
        <ele>688.63324</ele>
        <time>2019-04-25T12:15:00Z</time>
      </trkpt>
      <trkpt lat="43.79845" lon="7.45435">
        <ele>694.974182</ele>
        <time>2019-04-25T12:15:16Z</time>
      </trkpt>
      <trkpt lat="43.79843" lon="7.45416">
        <ele>700.741821</ele>
        <time>2019-04-25T12:15:42Z</time>
      </trkpt>
      <trkpt lat="43.79836" lon="7.45399">
        <ele>703.930664</ele>
        <time>2019-04-25T12:16:01Z</time>
      </trkpt>
      <trkpt lat="43.79822" lon="7.454">
        <ele>701.030518</ele>
        <time>2019-04-25T12:16:22Z</time>
      </trkpt>
      <trkpt lat="43.79809" lon="7.45393">
        <ele>700.581848</ele>
        <time>2019-04-25T12:16:38Z</time>
      </trkpt>
      <trkpt lat="43.79796" lon="7.45371">
        <ele>705.083862</ele>
        <time>2019-04-25T12:16:54Z</time>
      </trkpt>
      <trkpt lat="43.79791" lon="7.45346">
        <ele>712.344055</ele>
        <time>2019-04-25T12:17:10Z</time>
      </trkpt>
      <trkpt lat="43.79787" lon="7.45328">
        <ele>717.81665</ele>
        <time>2019-04-25T12:17:26Z</time>
      </trkpt>
      <trkpt lat="43.79777" lon="7.45313">
        <ele>721.190186</ele>
        <time>2019-04-25T12:17:44Z</time>
      </trkpt>
      <trkpt lat="43.79763" lon="7.45302">
        <ele>722.352234</ele>
        <time>2019-04-25T12:17:59Z</time>
      </trkpt>
      <trkpt lat="43.79751" lon="7.45291">
        <ele>723.607605</ele>
        <time>2019-04-25T12:18:18Z</time>
      </trkpt>
      <trkpt lat="43.79758" lon="7.45274">
        <ele>730.358154</ele>
        <time>2019-04-25T12:19:03Z</time>
      </trkpt>
      <trkpt lat="43.79767" lon="7.45259">
        <ele>737.224854</ele>
        <time>2019-04-25T12:19:21Z</time>
      </trkpt>
      <trkpt lat="43.79766" lon="7.45241">
        <ele>742.832703</ele>
        <time>2019-04-25T12:19:53Z</time>
      </trkpt>
      <trkpt lat="43.79774" lon="7.45223">
        <ele>749.971375</ele>
        <time>2019-04-25T12:20:08Z</time>
      </trkpt>
      <trkpt lat="43.79783" lon="7.45209">
        <ele>756.112183</ele>
        <time>2019-04-25T12:20:30Z</time>
      </trkpt>
      <trkpt lat="43.79788" lon="7.4519">
        <ele>762.693115</ele>
        <time>2019-04-25T12:20:59Z</time>
      </trkpt>
      <trkpt lat="43.79798" lon="7.45176">
        <ele>768.459534</ele>
        <time>2019-04-25T12:21:21Z</time>
      </trkpt>
      <trkpt lat="43.79787" lon="7.45166">
        <ele>769.531372</ele>
        <time>2019-04-25T12:22:03Z</time>
      </trkpt>
      <trkpt lat="43.79771" lon="7.45167">
        <ele>766.463379</ele>
        <time>2019-04-25T12:22:19Z</time>
      </trkpt>
      <trkpt lat="43.79758" lon="7.4517">
        <ele>763.29187</ele>
        <time>2019-04-25T12:22:39Z</time>
      </trkpt>
      <trkpt lat="43.79744" lon="7.45163">
        <ele>765.603821</ele>
        <time>2019-04-25T12:22:54Z</time>
      </trkpt>
      <trkpt lat="43.79741" lon="7.45145">
        <ele>771.461365</ele>
        <time>2019-04-25T12:23:11Z</time>
      </trkpt>
      <trkpt lat="43.79735" lon="7.45125">
        <ele>778.674622</ele>
        <time>2019-04-25T12:23:26Z</time>
      </trkpt>
      <trkpt lat="43.79741" lon="7.45108">
        <ele>781.639832</ele>
        <time>2019-04-25T12:23:53Z</time>
      </trkpt>
      <trkpt lat="43.79747" lon="7.4509">
        <ele>784.510742</ele>
        <time>2019-04-25T12:24:30Z</time>
      </trkpt>
      <trkpt lat="43.79751" lon="7.45072">
        <ele>786.471802</ele>
        <time>2019-04-25T12:24:48Z</time>
      </trkpt>
      <trkpt lat="43.79758" lon="7.45055">
        <ele>788.696289</ele>
        <time>2019-04-25T12:25:06Z</time>
      </trkpt>
      <trkpt lat="43.7977" lon="7.45044">
        <ele>790.353271</ele>
        <time>2019-04-25T12:25:23Z</time>
      </trkpt>
      <trkpt lat="43.7978" lon="7.45028">
        <ele>792.21167</ele>
        <time>2019-04-25T12:25:39Z</time>
      </trkpt>
      <trkpt lat="43.79792" lon="7.45018">
        <ele>793.372925</ele>
        <time>2019-04-25T12:26:06Z</time>
      </trkpt>
      <trkpt lat="43.79808" lon="7.45002">
        <ele>794.834595</ele>
        <time>2019-04-25T12:26:21Z</time>
      </trkpt>
      <trkpt lat="43.79824" lon="7.44991">
        <ele>793.410217</ele>
        <time>2019-04-25T12:26:37Z</time>
      </trkpt>
      <trkpt lat="43.79838" lon="7.44982">
        <ele>792.932678</ele>
        <time>2019-04-25T12:26:53Z</time>
      </trkpt>
      <trkpt lat="43.79845" lon="7.44965">
        <ele>791.510254</ele>
        <time>2019-04-25T12:27:25Z</time>
      </trkpt>
      <trkpt lat="43.79857" lon="7.44949">
        <ele>791.299316</ele>
        <time>2019-04-25T12:27:40Z</time>
      </trkpt>
      <trkpt lat="43.7987" lon="7.44935">
        <ele>791.110229</ele>
        <time>2019-04-25T12:27:55Z</time>
      </trkpt>
      <trkpt lat="43.79883" lon="7.44929">
        <ele>792.279175</ele>
        <time>2019-04-25T12:28:23Z</time>
      </trkpt>
      <trkpt lat="43.7989" lon="7.44908">
        <ele>786.811462</ele>
        <time>2019-04-25T12:28:39Z</time>
      </trkpt>
      <trkpt lat="43.79899" lon="7.44893">
        <ele>783.393982</ele>
        <time>2019-04-25T12:29:23Z</time>
      </trkpt>
      <trkpt lat="43.79917" lon="7.4488">
        <ele>782.786804</ele>
        <time>2019-04-25T12:29:39Z</time>
      </trkpt>
      <trkpt lat="43.79931" lon="7.44891">
        <ele>789.69751</ele>
        <time>2019-04-25T12:29:55Z</time>
      </trkpt>
      <trkpt lat="43.79943" lon="7.44898">
        <ele>794.975037</ele>
        <time>2019-04-25T12:30:14Z</time>
      </trkpt>
      <trkpt lat="43.79955" lon="7.44887">
        <ele>794.067078</ele>
        <time>2019-04-25T12:30:31Z</time>
      </trkpt>
      <trkpt lat="43.79971" lon="7.44872">
        <ele>793.276489</ele>
        <time>2019-04-25T12:30:47Z</time>
      </trkpt>
      <trkpt lat="43.79983" lon="7.44855">
        <ele>790.929382</ele>
        <time>2019-04-25T12:31:02Z</time>
      </trkpt>
      <trkpt lat="43.79992" lon="7.44823">
        <ele>783.451172</ele>
        <time>2019-04-25T12:31:18Z</time>
      </trkpt>
      <trkpt lat="43.79998" lon="7.448">
        <ele>776.967346</ele>
        <time>2019-04-25T12:31:34Z</time>
      </trkpt>
      <trkpt lat="43.80011" lon="7.44787">
        <ele>776.444458</ele>
        <time>2019-04-25T12:31:50Z</time>
      </trkpt>
      <trkpt lat="43.80023" lon="7.44772">
        <ele>775.200684</ele>
        <time>2019-04-25T12:32:05Z</time>
      </trkpt>
      <trkpt lat="43.80035" lon="7.44762">
        <ele>775.614014</ele>
        <time>2019-04-25T12:32:51Z</time>
      </trkpt>
      <trkpt lat="43.80046" lon="7.44749">
        <ele>774.523682</ele>
        <time>2019-04-25T12:33:14Z</time>
      </trkpt>
      <trkpt lat="43.80053" lon="7.44734">
        <ele>771.144897</ele>
        <time>2019-04-25T12:34:01Z</time>
      </trkpt>
      <trkpt lat="43.80069" lon="7.44728">
        <ele>774.322266</ele>
        <time>2019-04-25T12:34:17Z</time>
      </trkpt>
      <trkpt lat="43.80079" lon="7.44715">
        <ele>773.080383</ele>
        <time>2019-04-25T12:34:32Z</time>
      </trkpt>
      <trkpt lat="43.80093" lon="7.44716">
        <ele>778.596924</ele>
        <time>2019-04-25T12:34:55Z</time>
      </trkpt>
      <trkpt lat="43.801" lon="7.44693">
        <ele>773.00415</ele>
        <time>2019-04-25T12:35:10Z</time>
      </trkpt>
      <trkpt lat="43.80092" lon="7.44678">
        <ele>764.289124</ele>
        <time>2019-04-25T12:35:56Z</time>
      </trkpt>
      <trkpt lat="43.80106" lon="7.44673">
        <ele>767.965271</ele>
        <time>2019-04-25T12:36:24Z</time>
      </trkpt>
      <trkpt lat="43.80123" lon="7.44668">
        <ele>773.397766</ele>
        <time>2019-04-25T12:36:40Z</time>
      </trkpt>
      <trkpt lat="43.80135" lon="7.44651">
        <ele>771.342896</ele>
        <time>2019-04-25T12:36:56Z</time>
      </trkpt>
      <trkpt lat="43.80146" lon="7.44638">
        <ele>770.764771</ele>
        <time>2019-04-25T12:37:28Z</time>
      </trkpt>
      <trkpt lat="43.80155" lon="7.44624">
        <ele>769.12793</ele>
        <time>2019-04-25T12:38:03Z</time>
      </trkpt>
      <trkpt lat="43.80163" lon="7.44608">
        <ele>766.707214</ele>
        <time>2019-04-25T12:39:04Z</time>
      </trkpt>
      <trkpt lat="43.80172" lon="7.44585">
        <ele>762.267212</ele>
        <time>2019-04-25T12:39:19Z</time>
      </trkpt>
      <trkpt lat="43.80182" lon="7.44563">
        <ele>759.722351</ele>
        <time>2019-04-25T12:39:35Z</time>
      </trkpt>
      <trkpt lat="43.80194" lon="7.44541">
        <ele>758.703491</ele>
        <time>2019-04-25T12:39:51Z</time>
      </trkpt>
      <trkpt lat="43.80194" lon="7.44517">
        <ele>750.516052</ele>
        <time>2019-04-25T12:40:06Z</time>
      </trkpt>
      <trkpt lat="43.80199" lon="7.44495">
        <ele>746.449463</ele>
        <time>2019-04-25T12:40:22Z</time>
      </trkpt>
      <trkpt lat="43.80204" lon="7.44471">
        <ele>743.512085</ele>
        <time>2019-04-25T12:40:38Z</time>
      </trkpt>
      <trkpt lat="43.80215" lon="7.44446">
        <ele>744.450073</ele>
        <time>2019-04-25T12:40:54Z</time>
      </trkpt>
      <trkpt lat="43.8022" lon="7.44423">
        <ele>741.510986</ele>
        <time>2019-04-25T12:41:10Z</time>
      </trkpt>
      <trkpt lat="43.80218" lon="7.444">
        <ele>735.105591</ele>
        <time>2019-04-25T12:41:26Z</time>
      </trkpt>
      <trkpt lat="43.80217" lon="7.44381">
        <ele>729.752869</ele>
        <time>2019-04-25T12:42:43Z</time>
      </trkpt>
      <trkpt lat="43.80217" lon="7.44355">
        <ele>723.591919</ele>
        <time>2019-04-25T12:42:59Z</time>
      </trkpt>
      <trkpt lat="43.80215" lon="7.44326">
        <ele>715.628235</ele>
        <time>2019-04-25T12:43:14Z</time>
      </trkpt>
      <trkpt lat="43.80226" lon="7.44304">
        <ele>718.553955</ele>
        <time>2019-04-25T12:43:30Z</time>
      </trkpt>
      <trkpt lat="43.80228" lon="7.44274">
        <ele>715.253601</ele>
        <time>2019-04-25T12:43:46Z</time>
      </trkpt>
      <trkpt lat="43.8023" lon="7.44248">
        <ele>712.387329</ele>
        <time>2019-04-25T12:44:02Z</time>
      </trkpt>
      <trkpt lat="43.80221" lon="7.44234">
        <ele>706.280884</ele>
        <time>2019-04-25T12:44:23Z</time>
      </trkpt>
      <trkpt lat="43.8023" lon="7.44209">
        <ele>709.286682</ele>
        <time>2019-04-25T12:44:39Z</time>
      </trkpt>
      <trkpt lat="43.80233" lon="7.44184">
        <ele>709.207703</ele>
        <time>2019-04-25T12:44:54Z</time>
      </trkpt>
      <trkpt lat="43.80225" lon="7.44168">
        <ele>703.45813</ele>
        <time>2019-04-25T12:45:18Z</time>
      </trkpt>
      <trkpt lat="43.80215" lon="7.44155">
        <ele>696.796509</ele>
        <time>2019-04-25T12:45:39Z</time>
      </trkpt>
      <trkpt lat="43.80201" lon="7.44137">
        <ele>688.500732</ele>
        <time>2019-04-25T12:45:54Z</time>
      </trkpt>
      <trkpt lat="43.80193" lon="7.44122">
        <ele>682.720825</ele>
        <time>2019-04-25T12:46:10Z</time>
      </trkpt>
      <trkpt lat="43.80179" lon="7.44127">
        <ele>674.854553</ele>
        <time>2019-04-25T12:46:33Z</time>
      </trkpt>
      <trkpt lat="43.80167" lon="7.44116">
        <ele>667.563232</ele>
        <time>2019-04-25T12:46:49Z</time>
      </trkpt>
      <trkpt lat="43.80158" lon="7.44131">
        <ele>662.402893</ele>
        <time>2019-04-25T12:47:17Z</time>
      </trkpt>
      <trkpt lat="43.80154" lon="7.44157">
        <ele>660.387817</ele>
        <time>2019-04-25T12:47:33Z</time>
      </trkpt>
      <trkpt lat="43.80154" lon="7.44186">
        <ele>662.608337</ele>
        <time>2019-04-25T12:47:48Z</time>
      </trkpt>
      <trkpt lat="43.80145" lon="7.44204">
        <ele>658.886536</ele>
        <time>2019-04-25T12:48:04Z</time>
      </trkpt>
      <trkpt lat="43.80141" lon="7.44235">
        <ele>659.846497</ele>
        <time>2019-04-25T12:48:19Z</time>
      </trkpt>
      <trkpt lat="43.80142" lon="7.44255">
        <ele>663.063171</ele>
        <time>2019-04-25T12:49:51Z</time>
      </trkpt>
      <trkpt lat="43.80137" lon="7.44278">
        <ele>663.997803</ele>
        <time>2019-04-25T12:50:06Z</time>
      </trkpt>
      <trkpt lat="43.80129" lon="7.44305">
        <ele>664.831787</ele>
        <time>2019-04-25T12:50:22Z</time>
      </trkpt>
      <trkpt lat="43.80127" lon="7.44324">
        <ele>667.279541</ele>
        <time>2019-04-25T12:50:37Z</time>
      </trkpt>
      <trkpt lat="43.80119" lon="7.44348">
        <ele>668.270935</ele>
        <time>2019-04-25T12:50:52Z</time>
      </trkpt>
      <trkpt lat="43.80116" lon="7.44377">
        <ele>673.316895</ele>
        <time>2019-04-25T12:51:08Z</time>
      </trkpt>
      <trkpt lat="43.8011" lon="7.44403">
        <ele>676.61145</ele>
        <time>2019-04-25T12:51:24Z</time>
      </trkpt>
      <trkpt lat="43.80106" lon="7.44424">
        <ele>680.182251</ele>
        <time>2019-04-25T12:51:40Z</time>
      </trkpt>
      <trkpt lat="43.80099" lon="7.4444">
        <ele>681.345886</ele>
        <time>2019-04-25T12:52:00Z</time>
      </trkpt>
      <trkpt lat="43.80085" lon="7.44455">
        <ele>679.205811</ele>
        <time>2019-04-25T12:52:16Z</time>
      </trkpt>
      <trkpt lat="43.80067" lon="7.44473">
        <ele>677.887695</ele>
        <time>2019-04-25T12:52:31Z</time>
      </trkpt>
      <trkpt lat="43.80048" lon="7.44479">
        <ele>673.076172</ele>
        <time>2019-04-25T12:52:47Z</time>
      </trkpt>
      <trkpt lat="43.8003" lon="7.44476">
        <ele>665.291809</ele>
        <time>2019-04-25T12:53:02Z</time>
      </trkpt>
      <trkpt lat="43.80012" lon="7.44484">
        <ele>662.215698</ele>
        <time>2019-04-25T12:53:18Z</time>
      </trkpt>
      <trkpt lat="43.79999" lon="7.44495">
        <ele>661.890015</ele>
        <time>2019-04-25T12:53:33Z</time>
      </trkpt>
      <trkpt lat="43.79974" lon="7.44497">
        <ele>653.698914</ele>
        <time>2019-04-25T12:53:49Z</time>
      </trkpt>
      <trkpt lat="43.79955" lon="7.44506">
        <ele>650.480591</ele>
        <time>2019-04-25T12:54:04Z</time>
      </trkpt>
      <trkpt lat="43.79938" lon="7.4451">
        <ele>646.115417</ele>
        <time>2019-04-25T12:54:20Z</time>
      </trkpt>
      <trkpt lat="43.79922" lon="7.44515">
        <ele>642.525513</ele>
        <time>2019-04-25T12:54:35Z</time>
      </trkpt>
      <trkpt lat="43.79907" lon="7.4453">
        <ele>644.053955</ele>
        <time>2019-04-25T12:54:51Z</time>
      </trkpt>
      <trkpt lat="43.799" lon="7.44546">
        <ele>648.541138</ele>
        <time>2019-04-25T12:55:07Z</time>
      </trkpt>
      <trkpt lat="43.79889" lon="7.44558">
        <ele>650.029175</ele>
        <time>2019-04-25T12:55:22Z</time>
      </trkpt>
      <trkpt lat="43.79876" lon="7.44564">
        <ele>649.282227</ele>
        <time>2019-04-25T12:56:01Z</time>
      </trkpt>
      <trkpt lat="43.79863" lon="7.4457">
        <ele>648.079529</ele>
        <time>2019-04-25T12:56:24Z</time>
      </trkpt>
      <trkpt lat="43.7985" lon="7.44562">
        <ele>641.978333</ele>
        <time>2019-04-25T12:56:40Z</time>
      </trkpt>
      <trkpt lat="43.79836" lon="7.44557">
        <ele>636.174438</ele>
        <time>2019-04-25T12:57:09Z</time>
      </trkpt>
      <trkpt lat="43.79849" lon="7.44549">
        <ele>636.283508</ele>
        <time>2019-04-25T12:58:18Z</time>
      </trkpt>
      <trkpt lat="43.79855" lon="7.4453">
        <ele>630.604614</ele>
        <time>2019-04-25T12:58:34Z</time>
      </trkpt>
      <trkpt lat="43.79845" lon="7.44516">
        <ele>622.353455</ele>
        <time>2019-04-25T12:58:51Z</time>
      </trkpt>
      <trkpt lat="43.79848" lon="7.44498">
        <ele>615.913696</ele>
        <time>2019-04-25T12:59:12Z</time>
      </trkpt>
      <trkpt lat="43.79849" lon="7.44475">
        <ele>608.066406</ele>
        <time>2019-04-25T12:59:28Z</time>
      </trkpt>
      <trkpt lat="43.79837" lon="7.44487">
        <ele>609.379272</ele>
        <time>2019-04-25T13:00:00Z</time>
      </trkpt>
      <trkpt lat="43.79822" lon="7.44491">
        <ele>606.853699</ele>
        <time>2019-04-25T13:00:16Z</time>
      </trkpt>
      <trkpt lat="43.79814" lon="7.44475">
        <ele>598.450317</ele>
        <time>2019-04-25T13:01:09Z</time>
      </trkpt>
      <trkpt lat="43.79804" lon="7.44461">
        <ele>590.723755</ele>
        <time>2019-04-25T13:01:50Z</time>
      </trkpt>
      <trkpt lat="43.79791" lon="7.44455">
        <ele>584.864746</ele>
        <time>2019-04-25T13:02:15Z</time>
      </trkpt>
      <trkpt lat="43.79779" lon="7.44446">
        <ele>578.120728</ele>
        <time>2019-04-25T13:02:51Z</time>
      </trkpt>
      <trkpt lat="43.79767" lon="7.44436">
        <ele>570.856445</ele>
        <time>2019-04-25T13:04:34Z</time>
      </trkpt>
      <trkpt lat="43.79754" lon="7.44429">
        <ele>564.268677</ele>
        <time>2019-04-25T13:04:50Z</time>
      </trkpt>
      <trkpt lat="43.79741" lon="7.44422">
        <ele>557.461914</ele>
        <time>2019-04-25T13:05:14Z</time>
      </trkpt>
      <trkpt lat="43.79728" lon="7.44415">
        <ele>550.351562</ele>
        <time>2019-04-25T13:05:36Z</time>
      </trkpt>
      <trkpt lat="43.79719" lon="7.44399">
        <ele>541.359619</ele>
        <time>2019-04-25T13:06:01Z</time>
      </trkpt>
      <trkpt lat="43.79707" lon="7.4439">
        <ele>533.624451</ele>
        <time>2019-04-25T13:06:24Z</time>
      </trkpt>
      <trkpt lat="43.79696" lon="7.44379">
        <ele>525.409363</ele>
        <time>2019-04-25T13:06:53Z</time>
      </trkpt>
      <trkpt lat="43.79701" lon="7.4436">
        <ele>519.091431</ele>
        <time>2019-04-25T13:07:40Z</time>
      </trkpt>
      <trkpt lat="43.79687" lon="7.44361">
        <ele>514.888916</ele>
        <time>2019-04-25T13:07:56Z</time>
      </trkpt>
      <trkpt lat="43.79673" lon="7.44359">
        <ele>509.267914</ele>
        <time>2019-04-25T13:08:53Z</time>
      </trkpt>
      <trkpt lat="43.79659" lon="7.44354">
        <ele>503.166168</ele>
        <time>2019-04-25T13:09:13Z</time>
      </trkpt>
      <trkpt lat="43.79642" lon="7.44359">
        <ele>500.123901</ele>
        <time>2019-04-25T13:09:29Z</time>
      </trkpt>
      <trkpt lat="43.79628" lon="7.44358">
        <ele>495.657593</ele>
        <time>2019-04-25T13:09:44Z</time>
      </trkpt>
      <trkpt lat="43.79614" lon="7.44364">
        <ele>493.792236</ele>
        <time>2019-04-25T13:10:00Z</time>
      </trkpt>
      <trkpt lat="43.796" lon="7.44368">
        <ele>491.74054</ele>
        <time>2019-04-25T13:10:40Z</time>
      </trkpt>
      <trkpt lat="43.79585" lon="7.44369">
        <ele>487.734955</ele>
        <time>2019-04-25T13:10:56Z</time>
      </trkpt>
      <trkpt lat="43.7957" lon="7.44368">
        <ele>483.205811</ele>
        <time>2019-04-25T13:11:11Z</time>
      </trkpt>
      <trkpt lat="43.7955" lon="7.44374">
        <ele>480.377625</ele>
        <time>2019-04-25T13:11:26Z</time>
      </trkpt>
      <trkpt lat="43.79528" lon="7.44379">
        <ele>476.696777</ele>
        <time>2019-04-25T13:11:42Z</time>
      </trkpt>
      <trkpt lat="43.79512" lon="7.44374">
        <ele>470.301147</ele>
        <time>2019-04-25T13:11:58Z</time>
      </trkpt>
      <trkpt lat="43.79497" lon="7.44362">
        <ele>460.275177</ele>
        <time>2019-04-25T13:12:14Z</time>
      </trkpt>
      <trkpt lat="43.79478" lon="7.44357">
        <ele>449.932251</ele>
        <time>2019-04-25T13:12:30Z</time>
      </trkpt>
      <trkpt lat="43.79464" lon="7.44364">
        <ele>447.687927</ele>
        <time>2019-04-25T13:12:47Z</time>
      </trkpt>
      <trkpt lat="43.79449" lon="7.44371">
        <ele>445.22583</ele>
        <time>2019-04-25T13:13:02Z</time>
      </trkpt>
      <trkpt lat="43.79432" lon="7.44377">
        <ele>441.779755</ele>
        <time>2019-04-25T13:13:17Z</time>
      </trkpt>
      <trkpt lat="43.79415" lon="7.44375">
        <ele>434.030518</ele>
        <time>2019-04-25T13:13:33Z</time>
      </trkpt>
      <trkpt lat="43.79403" lon="7.44384">
        <ele>436.515686</ele>
        <time>2019-04-25T13:13:49Z</time>
      </trkpt>
      <trkpt lat="43.79384" lon="7.44396">
        <ele>440.082245</ele>
        <time>2019-04-25T13:14:05Z</time>
      </trkpt>
      <trkpt lat="43.79378" lon="7.44379">
        <ele>428.296509</ele>
        <time>2019-04-25T13:14:24Z</time>
      </trkpt>
      <trkpt lat="43.7937" lon="7.44364">
        <ele>416.94043</ele>
        <time>2019-04-25T13:15:02Z</time>
      </trkpt>
      <trkpt lat="43.79377" lon="7.44345">
        <ele>407.516876</ele>
        <time>2019-04-25T13:15:42Z</time>
      </trkpt>
      <trkpt lat="43.7938" lon="7.44327">
        <ele>402.025818</ele>
        <time>2019-04-25T13:16:21Z</time>
      </trkpt>
      <trkpt lat="43.79372" lon="7.44311">
        <ele>402.887939</ele>
        <time>2019-04-25T13:16:43Z</time>
      </trkpt>
      <trkpt lat="43.79357" lon="7.44315">
        <ele>398.006348</ele>
        <time>2019-04-25T13:17:06Z</time>
      </trkpt>
      <trkpt lat="43.79346" lon="7.44328">
        <ele>392.986938</ele>
        <time>2019-04-25T13:17:29Z</time>
      </trkpt>
      <trkpt lat="43.79332" lon="7.44331">
        <ele>388.991943</ele>
        <time>2019-04-25T13:17:54Z</time>
      </trkpt>
      <trkpt lat="43.79317" lon="7.44339">
        <ele>388.401886</ele>
        <time>2019-04-25T13:18:10Z</time>
      </trkpt>
      <trkpt lat="43.79308" lon="7.44354">
        <ele>396.544281</ele>
        <time>2019-04-25T13:18:41Z</time>
      </trkpt>
      <trkpt lat="43.79296" lon="7.4434">
        <ele>384.459229</ele>
        <time>2019-04-25T13:19:12Z</time>
      </trkpt>
      <trkpt lat="43.79283" lon="7.44343">
        <ele>383.175537</ele>
        <time>2019-04-25T13:19:28Z</time>
      </trkpt>
      <trkpt lat="43.7927" lon="7.44349">
        <ele>384.033783</ele>
        <time>2019-04-25T13:21:23Z</time>
      </trkpt>
      <trkpt lat="43.79252" lon="7.44354">
        <ele>384.196838</ele>
        <time>2019-04-25T13:21:38Z</time>
      </trkpt>
      <trkpt lat="43.79233" lon="7.44361">
        <ele>380.65744</ele>
        <time>2019-04-25T13:21:54Z</time>
      </trkpt>
      <trkpt lat="43.79219" lon="7.44355">
        <ele>370.977905</ele>
        <time>2019-04-25T13:22:10Z</time>
      </trkpt>
      <trkpt lat="43.79206" lon="7.44345">
        <ele>360.910095</ele>
        <time>2019-04-25T13:22:55Z</time>
      </trkpt>
      <trkpt lat="43.79193" lon="7.44352">
        <ele>359.098419</ele>
        <time>2019-04-25T13:23:26Z</time>
      </trkpt>
      <trkpt lat="43.7918" lon="7.4436">
        <ele>356.656738</ele>
        <time>2019-04-25T13:23:42Z</time>
      </trkpt>
      <trkpt lat="43.79162" lon="7.44366">
        <ele>351.849487</ele>
        <time>2019-04-25T13:23:58Z</time>
      </trkpt>
      <trkpt lat="43.79141" lon="7.44381">
        <ele>352.168365</ele>
        <time>2019-04-25T13:24:14Z</time>
      </trkpt>
      <trkpt lat="43.7913" lon="7.44394">
        <ele>351.381226</ele>
        <time>2019-04-25T13:24:43Z</time>
      </trkpt>
      <trkpt lat="43.7912" lon="7.4441">
        <ele>349.516052</ele>
        <time>2019-04-25T13:25:19Z</time>
      </trkpt>
      <trkpt lat="43.79107" lon="7.4443">
        <ele>347.913971</ele>
        <time>2019-04-25T13:25:34Z</time>
      </trkpt>
      <trkpt lat="43.79092" lon="7.4444">
        <ele>341.976105</ele>
        <time>2019-04-25T13:25:50Z</time>
      </trkpt>
      <trkpt lat="43.79095" lon="7.44459">
        <ele>346.427734</ele>
        <time>2019-04-25T13:26:16Z</time>
      </trkpt>
      <trkpt lat="43.79084" lon="7.44504">
        <ele>341.275726</ele>
        <time>2019-04-25T13:26:32Z</time>
      </trkpt>
      <trkpt lat="43.79054" lon="7.44509">
        <ele>338.502197</ele>
        <time>2019-04-25T13:26:47Z</time>
      </trkpt>
      <trkpt lat="43.79031" lon="7.44519">
        <ele>335.699921</ele>
        <time>2019-04-25T13:27:02Z</time>
      </trkpt>
      <trkpt lat="43.7902" lon="7.44508">
        <ele>333.433929</ele>
        <time>2019-04-25T13:27:23Z</time>
      </trkpt>
      <trkpt lat="43.79009" lon="7.44496">
        <ele>333.29483</ele>
        <time>2019-04-25T13:27:43Z</time>
      </trkpt>
      <trkpt lat="43.78995" lon="7.44492">
        <ele>333.605164</ele>
        <time>2019-04-25T13:28:13Z</time>
      </trkpt>
      <trkpt lat="43.78984" lon="7.4448">
        <ele>336.289734</ele>
        <time>2019-04-25T13:28:40Z</time>
      </trkpt>
      <trkpt lat="43.78971" lon="7.44462">
        <ele>340.577057</ele>
        <time>2019-04-25T13:28:56Z</time>
      </trkpt>
      <trkpt lat="43.78958" lon="7.44456">
        <ele>342.458069</ele>
        <time>2019-04-25T13:29:30Z</time>
      </trkpt>
      <trkpt lat="43.78945" lon="7.44445">
        <ele>345.560028</ele>
        <time>2019-04-25T13:29:49Z</time>
      </trkpt>
      <trkpt lat="43.78932" lon="7.44441">
        <ele>347.462982</ele>
        <time>2019-04-25T13:30:07Z</time>
      </trkpt>
      <trkpt lat="43.78918" lon="7.44438">
        <ele>349.018677</ele>
        <time>2019-04-25T13:30:27Z</time>
      </trkpt>
      <trkpt lat="43.78907" lon="7.44427">
        <ele>350.966431</ele>
        <time>2019-04-25T13:31:26Z</time>
      </trkpt>
      <trkpt lat="43.78894" lon="7.44421">
        <ele>351.592865</ele>
        <time>2019-04-25T13:31:43Z</time>
      </trkpt>
      <trkpt lat="43.78881" lon="7.44414">
        <ele>352.534119</ele>
        <time>2019-04-25T13:32:04Z</time>
      </trkpt>
      <trkpt lat="43.78854" lon="7.44396">
        <ele>355.297333</ele>
        <time>2019-04-25T13:32:20Z</time>
      </trkpt>
      <trkpt lat="43.78847" lon="7.4438">
        <ele>358.973785</ele>
        <time>2019-04-25T13:32:45Z</time>
      </trkpt>
      <trkpt lat="43.78833" lon="7.44369">
        <ele>360.924561</ele>
        <time>2019-04-25T13:33:00Z</time>
      </trkpt>
      <trkpt lat="43.78818" lon="7.44357">
        <ele>362.196503</ele>
        <time>2019-04-25T13:33:15Z</time>
      </trkpt>
      <trkpt lat="43.78805" lon="7.44341">
        <ele>364.737518</ele>
        <time>2019-04-25T13:33:31Z</time>
      </trkpt>
      <trkpt lat="43.78795" lon="7.44318">
        <ele>368.3797</ele>
        <time>2019-04-25T13:33:46Z</time>
      </trkpt>
      <trkpt lat="43.78777" lon="7.44308">
        <ele>368.251373</ele>
        <time>2019-04-25T13:34:02Z</time>
      </trkpt>
      <trkpt lat="43.7876" lon="7.44296">
        <ele>368.383759</ele>
        <time>2019-04-25T13:34:17Z</time>
      </trkpt>
      <trkpt lat="43.78744" lon="7.44294">
        <ele>367.181244</ele>
        <time>2019-04-25T13:34:33Z</time>
      </trkpt>
      <trkpt lat="43.78724" lon="7.44295">
        <ele>366.021332</ele>
        <time>2019-04-25T13:34:49Z</time>
      </trkpt>
      <trkpt lat="43.78711" lon="7.44301">
        <ele>364.213654</ele>
        <time>2019-04-25T13:35:08Z</time>
      </trkpt>
    </trkseg>
  </trk>
</gpx>